<?xml version="1.0" encoding="UTF-8" standalone="no" ?>
<gpx xmlns="http://www.topografix.com/GPX/1/1" xmlns:xsi="http://www.w3.org/2001/XMLSchema-instance" xsi:schemaLocation="http://www.topografix.com/GPX/1/1 http://www.topografix.com/GPX/1/1/gpx.xsd" version="1.1" creator="VisuGPX - https://www.visugpx.com">
  <metadata>
    <name>balade </name>
    <desc><![CDATA[Balade avec mon compagnon]]></desc>
  </metadata>
  <trk>
    <name><![CDATA[Diebling Rosbruck]]></name>
    <trkseg>
      <trkpt lat="49.10391" lon="6.94683">
        <ele>256.81</ele>
        <time>2014-03-11T16:50:48Z</time>
      </trkpt>
      <trkpt lat="49.1039" lon="6.94684">
        <ele>256.33</ele>
        <time>2014-03-11T16:51:16Z</time>
      </trkpt>
      <trkpt lat="49.1039" lon="6.94682">
        <ele>256.81</ele>
        <time>2014-03-11T16:51:45Z</time>
      </trkpt>
      <trkpt lat="49.10391" lon="6.94682">
        <ele>260.65</ele>
        <time>2014-03-11T16:52:12Z</time>
      </trkpt>
      <trkpt lat="49.10392" lon="6.94685">
        <ele>260.17</ele>
        <time>2014-03-11T16:52:37Z</time>
      </trkpt>
      <trkpt lat="49.10391" lon="6.94686">
        <ele>259.69</ele>
        <time>2014-03-11T16:52:39Z</time>
      </trkpt>
      <trkpt lat="49.10389" lon="6.94692">
        <ele>247.2</ele>
        <time>2014-03-11T18:02:28Z</time>
      </trkpt>
      <trkpt lat="49.10386" lon="6.94687">
        <ele>248.64</ele>
        <time>2014-03-11T18:02:48Z</time>
      </trkpt>
      <trkpt lat="49.10391" lon="6.94687">
        <ele>252.96</ele>
        <time>2014-03-11T18:03:14Z</time>
      </trkpt>
      <trkpt lat="49.1039" lon="6.94688">
        <ele>253.93</ele>
        <time>2014-03-11T18:03:51Z</time>
      </trkpt>
      <trkpt lat="49.1039" lon="6.94687">
        <ele>253.93</ele>
        <time>2014-03-11T18:04:28Z</time>
      </trkpt>
      <trkpt lat="49.10386" lon="6.94691">
        <ele>248.16</ele>
        <time>2014-03-11T18:05:08Z</time>
      </trkpt>
      <trkpt lat="49.10382" lon="6.94693">
        <ele>246.23</ele>
        <time>2014-03-11T18:05:34Z</time>
      </trkpt>
      <trkpt lat="49.10383" lon="6.94689">
        <ele>249.12</ele>
        <time>2014-03-11T18:06:03Z</time>
      </trkpt>
      <trkpt lat="49.10392" lon="6.94698">
        <ele>253.44</ele>
        <time>2014-03-11T18:08:43Z</time>
      </trkpt>
      <trkpt lat="49.10391" lon="6.94697">
        <ele>249.6</ele>
        <time>2014-03-11T18:09:07Z</time>
      </trkpt>
      <trkpt lat="49.10394" lon="6.94695">
        <ele>251.52</ele>
        <time>2014-03-11T18:09:29Z</time>
      </trkpt>
      <trkpt lat="49.10394" lon="6.94694">
        <ele>252</ele>
        <time>2014-03-11T18:09:53Z</time>
      </trkpt>
      <trkpt lat="49.10394" lon="6.94694">
        <ele>252.48</ele>
        <time>2014-03-11T18:10:01Z</time>
      </trkpt>
      <trkpt lat="49.10394" lon="6.94695">
        <ele>224.12</ele>
        <time>2014-03-12T06:54:34Z</time>
      </trkpt>
      <trkpt lat="49.10398" lon="6.94691">
        <ele>252</ele>
        <time>2014-03-12T06:55:03Z</time>
      </trkpt>
      <trkpt lat="49.10398" lon="6.94692">
        <ele>255.85</ele>
        <time>2014-03-12T06:55:33Z</time>
      </trkpt>
      <trkpt lat="49.10398" lon="6.94693">
        <ele>255.85</ele>
        <time>2014-03-12T06:55:44Z</time>
      </trkpt>
      <trkpt lat="49.10396" lon="6.94689">
        <ele>243.83</ele>
        <time>2014-03-12T11:04:05Z</time>
      </trkpt>
      <trkpt lat="49.10396" lon="6.94684">
        <ele>252</ele>
        <time>2014-03-12T11:04:31Z</time>
      </trkpt>
      <trkpt lat="49.10397" lon="6.94689">
        <ele>249.12</ele>
        <time>2014-03-12T11:05:06Z</time>
      </trkpt>
      <trkpt lat="49.10397" lon="6.94689">
        <ele>247.68</ele>
        <time>2014-03-12T11:05:39Z</time>
      </trkpt>
      <trkpt lat="49.10397" lon="6.9469">
        <ele>248.64</ele>
        <time>2014-03-12T11:06:12Z</time>
      </trkpt>
      <trkpt lat="49.10394" lon="6.94691">
        <ele>250.08</ele>
        <time>2014-03-12T11:06:40Z</time>
      </trkpt>
      <trkpt lat="49.10391" lon="6.94692">
        <ele>250.56</ele>
        <time>2014-03-12T11:07:25Z</time>
      </trkpt>
      <trkpt lat="49.10392" lon="6.94694">
        <ele>250.56</ele>
        <time>2014-03-12T11:07:47Z</time>
      </trkpt>
      <trkpt lat="49.10392" lon="6.94694">
        <ele>250.56</ele>
        <time>2014-03-12T11:08:13Z</time>
      </trkpt>
      <trkpt lat="49.10392" lon="6.94695">
        <ele>252</ele>
        <time>2014-03-12T11:08:43Z</time>
      </trkpt>
      <trkpt lat="49.10392" lon="6.94697">
        <ele>252</ele>
        <time>2014-03-12T11:09:02Z</time>
      </trkpt>
      <trkpt lat="49.10392" lon="6.94698">
        <ele>252.48</ele>
        <time>2014-03-12T11:09:12Z</time>
      </trkpt>
      <trkpt lat="49.10392" lon="6.94695">
        <ele>228.93</ele>
        <time>2014-03-12T11:51:18Z</time>
      </trkpt>
      <trkpt lat="49.10397" lon="6.94691">
        <ele>258.73</ele>
        <time>2014-03-12T11:51:52Z</time>
      </trkpt>
      <trkpt lat="49.10392" lon="6.94695">
        <ele>244.79</ele>
        <time>2014-03-12T12:17:22Z</time>
      </trkpt>
      <trkpt lat="49.10407" lon="6.94694">
        <ele>245.27</ele>
        <time>2014-03-12T12:17:40Z</time>
      </trkpt>
      <trkpt lat="49.10407" lon="6.94695">
        <ele>245.27</ele>
        <time>2014-03-12T12:17:45Z</time>
      </trkpt>
      <trkpt lat="49.10407" lon="6.94694">
        <ele>244.79</ele>
        <time>2014-03-12T12:18:01Z</time>
      </trkpt>
      <trkpt lat="49.10407" lon="6.94688">
        <ele>244.31</ele>
        <time>2014-03-12T12:18:13Z</time>
      </trkpt>
      <trkpt lat="49.10407" lon="6.94683">
        <ele>243.83</ele>
        <time>2014-03-12T12:18:16Z</time>
      </trkpt>
      <trkpt lat="49.1041" lon="6.94672">
        <ele>244.79</ele>
        <time>2014-03-12T12:18:25Z</time>
      </trkpt>
      <trkpt lat="49.10428" lon="6.94682">
        <ele>241.91</ele>
        <time>2014-03-12T12:18:42Z</time>
      </trkpt>
      <trkpt lat="49.10447" lon="6.947">
        <ele>238.06</ele>
        <time>2014-03-12T12:18:59Z</time>
      </trkpt>
      <trkpt lat="49.1046" lon="6.94724">
        <ele>236.14</ele>
        <time>2014-03-12T12:19:15Z</time>
      </trkpt>
      <trkpt lat="49.10464" lon="6.94727">
        <ele>235.66</ele>
        <time>2014-03-12T12:19:19Z</time>
      </trkpt>
      <trkpt lat="49.10471" lon="6.94739">
        <ele>234.7</ele>
        <time>2014-03-12T12:19:28Z</time>
      </trkpt>
      <trkpt lat="49.10481" lon="6.94748">
        <ele>231.81</ele>
        <time>2014-03-12T12:19:38Z</time>
      </trkpt>
      <trkpt lat="49.10489" lon="6.94748">
        <ele>231.33</ele>
        <time>2014-03-12T12:19:43Z</time>
      </trkpt>
      <trkpt lat="49.10512" lon="6.94743">
        <ele>230.37</ele>
        <time>2014-03-12T12:19:58Z</time>
      </trkpt>
      <trkpt lat="49.1053" lon="6.94726">
        <ele>225.57</ele>
        <time>2014-03-12T12:20:14Z</time>
      </trkpt>
      <trkpt lat="49.10541" lon="6.94721">
        <ele>227.01</ele>
        <time>2014-03-12T12:20:23Z</time>
      </trkpt>
      <trkpt lat="49.10547" lon="6.9469">
        <ele>230.85</ele>
        <time>2014-03-12T12:20:38Z</time>
      </trkpt>
      <trkpt lat="49.10547" lon="6.9466">
        <ele>236.14</ele>
        <time>2014-03-12T12:20:54Z</time>
      </trkpt>
      <trkpt lat="49.10547" lon="6.94624">
        <ele>234.7</ele>
        <time>2014-03-12T12:21:11Z</time>
      </trkpt>
      <trkpt lat="49.10548" lon="6.9461">
        <ele>236.14</ele>
        <time>2014-03-12T12:21:20Z</time>
      </trkpt>
      <trkpt lat="49.10552" lon="6.9458">
        <ele>236.62</ele>
        <time>2014-03-12T12:21:36Z</time>
      </trkpt>
      <trkpt lat="49.10569" lon="6.94545">
        <ele>237.58</ele>
        <time>2014-03-12T12:21:56Z</time>
      </trkpt>
      <trkpt lat="49.10581" lon="6.94535">
        <ele>238.54</ele>
        <time>2014-03-12T12:22:11Z</time>
      </trkpt>
      <trkpt lat="49.10585" lon="6.94531">
        <ele>238.54</ele>
        <time>2014-03-12T12:22:15Z</time>
      </trkpt>
      <trkpt lat="49.10607" lon="6.94517">
        <ele>240.95</ele>
        <time>2014-03-12T12:22:33Z</time>
      </trkpt>
      <trkpt lat="49.10617" lon="6.94511">
        <ele>241.43</ele>
        <time>2014-03-12T12:22:42Z</time>
      </trkpt>
      <trkpt lat="49.10635" lon="6.94501">
        <ele>241.43</ele>
        <time>2014-03-12T12:22:58Z</time>
      </trkpt>
      <trkpt lat="49.10639" lon="6.945">
        <ele>241.91</ele>
        <time>2014-03-12T12:23:03Z</time>
      </trkpt>
      <trkpt lat="49.10664" lon="6.94487">
        <ele>243.83</ele>
        <time>2014-03-12T12:23:22Z</time>
      </trkpt>
      <trkpt lat="49.10671" lon="6.94482">
        <ele>243.35</ele>
        <time>2014-03-12T12:23:29Z</time>
      </trkpt>
      <trkpt lat="49.10687" lon="6.94475">
        <ele>241.91</ele>
        <time>2014-03-12T12:23:43Z</time>
      </trkpt>
      <trkpt lat="49.10689" lon="6.94473">
        <ele>241.91</ele>
        <time>2014-03-12T12:23:46Z</time>
      </trkpt>
      <trkpt lat="49.10694" lon="6.94469">
        <ele>240.47</ele>
        <time>2014-03-12T12:23:52Z</time>
      </trkpt>
      <trkpt lat="49.10709" lon="6.94456">
        <ele>239.99</ele>
        <time>2014-03-12T12:24:08Z</time>
      </trkpt>
      <trkpt lat="49.1071" lon="6.94454">
        <ele>240.47</ele>
        <time>2014-03-12T12:24:32Z</time>
      </trkpt>
      <trkpt lat="49.10725" lon="6.94439">
        <ele>240.47</ele>
        <time>2014-03-12T12:24:47Z</time>
      </trkpt>
      <trkpt lat="49.10733" lon="6.94416">
        <ele>241.43</ele>
        <time>2014-03-12T12:25:01Z</time>
      </trkpt>
      <trkpt lat="49.10756" lon="6.94407">
        <ele>233.74</ele>
        <time>2014-03-12T12:25:19Z</time>
      </trkpt>
      <trkpt lat="49.10778" lon="6.94382">
        <ele>229.41</ele>
        <time>2014-03-12T12:25:36Z</time>
      </trkpt>
      <trkpt lat="49.10796" lon="6.94361">
        <ele>221.24</ele>
        <time>2014-03-12T12:25:55Z</time>
      </trkpt>
      <trkpt lat="49.10821" lon="6.94324">
        <ele>214.99</ele>
        <time>2014-03-12T12:26:17Z</time>
      </trkpt>
      <trkpt lat="49.10837" lon="6.94298">
        <ele>212.11</ele>
        <time>2014-03-12T12:26:34Z</time>
      </trkpt>
      <trkpt lat="49.1085" lon="6.94267">
        <ele>211.15</ele>
        <time>2014-03-12T12:26:50Z</time>
      </trkpt>
      <trkpt lat="49.10855" lon="6.94243">
        <ele>209.22</ele>
        <time>2014-03-12T12:27:06Z</time>
      </trkpt>
      <trkpt lat="49.10856" lon="6.94206">
        <ele>210.19</ele>
        <time>2014-03-12T12:27:24Z</time>
      </trkpt>
      <trkpt lat="49.10856" lon="6.94158">
        <ele>219.8</ele>
        <time>2014-03-12T12:27:43Z</time>
      </trkpt>
      <trkpt lat="49.10859" lon="6.94114">
        <ele>228.93</ele>
        <time>2014-03-12T12:28:00Z</time>
      </trkpt>
      <trkpt lat="49.1087" lon="6.941">
        <ele>226.53</ele>
        <time>2014-03-12T12:28:12Z</time>
      </trkpt>
      <trkpt lat="49.10891" lon="6.94068">
        <ele>223.64</ele>
        <time>2014-03-12T12:28:32Z</time>
      </trkpt>
      <trkpt lat="49.10907" lon="6.94051">
        <ele>219.32</ele>
        <time>2014-03-12T12:28:47Z</time>
      </trkpt>
      <trkpt lat="49.10911" lon="6.94045">
        <ele>218.84</ele>
        <time>2014-03-12T12:28:50Z</time>
      </trkpt>
      <trkpt lat="49.10923" lon="6.94005">
        <ele>223.16</ele>
        <time>2014-03-12T12:29:08Z</time>
      </trkpt>
      <trkpt lat="49.10942" lon="6.93977">
        <ele>234.22</ele>
        <time>2014-03-12T12:29:25Z</time>
      </trkpt>
      <trkpt lat="49.10963" lon="6.93957">
        <ele>237.1</ele>
        <time>2014-03-12T12:29:43Z</time>
      </trkpt>
      <trkpt lat="49.1098" lon="6.93947">
        <ele>240.95</ele>
        <time>2014-03-12T12:29:59Z</time>
      </trkpt>
      <trkpt lat="49.10996" lon="6.93941">
        <ele>240.95</ele>
        <time>2014-03-12T12:30:13Z</time>
      </trkpt>
      <trkpt lat="49.11007" lon="6.93939">
        <ele>241.43</ele>
        <time>2014-03-12T12:30:28Z</time>
      </trkpt>
      <trkpt lat="49.11025" lon="6.93932">
        <ele>240.95</ele>
        <time>2014-03-12T12:30:44Z</time>
      </trkpt>
      <trkpt lat="49.11044" lon="6.93919">
        <ele>239.99</ele>
        <time>2014-03-12T12:31:02Z</time>
      </trkpt>
      <trkpt lat="49.11066" lon="6.93902">
        <ele>240.47</ele>
        <time>2014-03-12T12:31:20Z</time>
      </trkpt>
      <trkpt lat="49.11077" lon="6.93888">
        <ele>240.47</ele>
        <time>2014-03-12T12:31:32Z</time>
      </trkpt>
      <trkpt lat="49.11097" lon="6.93858">
        <ele>237.58</ele>
        <time>2014-03-12T12:31:51Z</time>
      </trkpt>
      <trkpt lat="49.11109" lon="6.93832">
        <ele>235.18</ele>
        <time>2014-03-12T12:32:07Z</time>
      </trkpt>
      <trkpt lat="49.11116" lon="6.93787">
        <ele>236.14</ele>
        <time>2014-03-12T12:32:28Z</time>
      </trkpt>
      <trkpt lat="49.11115" lon="6.93741">
        <ele>239.99</ele>
        <time>2014-03-12T12:32:48Z</time>
      </trkpt>
      <trkpt lat="49.11113" lon="6.93733">
        <ele>241.43</ele>
        <time>2014-03-12T12:33:05Z</time>
      </trkpt>
      <trkpt lat="49.11111" lon="6.93726">
        <ele>244.31</ele>
        <time>2014-03-12T12:33:24Z</time>
      </trkpt>
      <trkpt lat="49.11116" lon="6.93692">
        <ele>244.31</ele>
        <time>2014-03-12T12:33:40Z</time>
      </trkpt>
      <trkpt lat="49.11118" lon="6.93663">
        <ele>244.79</ele>
        <time>2014-03-12T12:33:54Z</time>
      </trkpt>
      <trkpt lat="49.1112" lon="6.93619">
        <ele>246.72</ele>
        <time>2014-03-12T12:34:13Z</time>
      </trkpt>
      <trkpt lat="49.11124" lon="6.93583">
        <ele>246.23</ele>
        <time>2014-03-12T12:34:31Z</time>
      </trkpt>
      <trkpt lat="49.11131" lon="6.93552">
        <ele>246.72</ele>
        <time>2014-03-12T12:34:46Z</time>
      </trkpt>
      <trkpt lat="49.11146" lon="6.93513">
        <ele>239.99</ele>
        <time>2014-03-12T12:35:05Z</time>
      </trkpt>
      <trkpt lat="49.11157" lon="6.93471">
        <ele>237.1</ele>
        <time>2014-03-12T12:35:24Z</time>
      </trkpt>
      <trkpt lat="49.11163" lon="6.93447">
        <ele>238.06</ele>
        <time>2014-03-12T12:35:37Z</time>
      </trkpt>
      <trkpt lat="49.11171" lon="6.93426">
        <ele>239.02</ele>
        <time>2014-03-12T12:35:49Z</time>
      </trkpt>
      <trkpt lat="49.11186" lon="6.93383">
        <ele>238.06</ele>
        <time>2014-03-12T12:36:10Z</time>
      </trkpt>
      <trkpt lat="49.11199" lon="6.93356">
        <ele>236.62</ele>
        <time>2014-03-12T12:36:27Z</time>
      </trkpt>
      <trkpt lat="49.11212" lon="6.93344">
        <ele>234.22</ele>
        <time>2014-03-12T12:36:43Z</time>
      </trkpt>
      <trkpt lat="49.11226" lon="6.93348">
        <ele>232.78</ele>
        <time>2014-03-12T12:36:56Z</time>
      </trkpt>
      <trkpt lat="49.1125" lon="6.93372">
        <ele>230.37</ele>
        <time>2014-03-12T12:37:21Z</time>
      </trkpt>
      <trkpt lat="49.11274" lon="6.93409">
        <ele>228.45</ele>
        <time>2014-03-12T12:37:45Z</time>
      </trkpt>
      <trkpt lat="49.11288" lon="6.9344">
        <ele>232.78</ele>
        <time>2014-03-12T12:38:01Z</time>
      </trkpt>
      <trkpt lat="49.11293" lon="6.93448">
        <ele>232.3</ele>
        <time>2014-03-12T12:38:07Z</time>
      </trkpt>
      <trkpt lat="49.11318" lon="6.93468">
        <ele>228.45</ele>
        <time>2014-03-12T12:38:28Z</time>
      </trkpt>
      <trkpt lat="49.11343" lon="6.93482">
        <ele>228.93</ele>
        <time>2014-03-12T12:38:50Z</time>
      </trkpt>
      <trkpt lat="49.11371" lon="6.93495">
        <ele>228.93</ele>
        <time>2014-03-12T12:39:09Z</time>
      </trkpt>
      <trkpt lat="49.11389" lon="6.93509">
        <ele>236.14</ele>
        <time>2014-03-12T12:39:23Z</time>
      </trkpt>
      <trkpt lat="49.11391" lon="6.93509">
        <ele>238.06</ele>
        <time>2014-03-12T12:39:24Z</time>
      </trkpt>
      <trkpt lat="49.1141" lon="6.93481">
        <ele>243.83</ele>
        <time>2014-03-12T12:39:41Z</time>
      </trkpt>
      <trkpt lat="49.11418" lon="6.93463">
        <ele>242.39</ele>
        <time>2014-03-12T12:39:52Z</time>
      </trkpt>
      <trkpt lat="49.11419" lon="6.93459">
        <ele>242.39</ele>
        <time>2014-03-12T12:39:54Z</time>
      </trkpt>
      <trkpt lat="49.11433" lon="6.9342">
        <ele>241.91</ele>
        <time>2014-03-12T12:40:15Z</time>
      </trkpt>
      <trkpt lat="49.11443" lon="6.93388">
        <ele>242.39</ele>
        <time>2014-03-12T12:40:31Z</time>
      </trkpt>
      <trkpt lat="49.11451" lon="6.93352">
        <ele>238.54</ele>
        <time>2014-03-12T12:40:51Z</time>
      </trkpt>
      <trkpt lat="49.11459" lon="6.93317">
        <ele>238.06</ele>
        <time>2014-03-12T12:41:09Z</time>
      </trkpt>
      <trkpt lat="49.11467" lon="6.93293">
        <ele>236.14</ele>
        <time>2014-03-12T12:41:25Z</time>
      </trkpt>
      <trkpt lat="49.11472" lon="6.93271">
        <ele>236.62</ele>
        <time>2014-03-12T12:41:40Z</time>
      </trkpt>
      <trkpt lat="49.11477" lon="6.93241">
        <ele>240.95</ele>
        <time>2014-03-12T12:41:56Z</time>
      </trkpt>
      <trkpt lat="49.11489" lon="6.93206">
        <ele>244.31</ele>
        <time>2014-03-12T12:42:17Z</time>
      </trkpt>
      <trkpt lat="49.11502" lon="6.93179">
        <ele>245.27</ele>
        <time>2014-03-12T12:42:35Z</time>
      </trkpt>
      <trkpt lat="49.11514" lon="6.93152">
        <ele>245.75</ele>
        <time>2014-03-12T12:42:53Z</time>
      </trkpt>
      <trkpt lat="49.11525" lon="6.93125">
        <ele>247.2</ele>
        <time>2014-03-12T12:43:10Z</time>
      </trkpt>
      <trkpt lat="49.1153" lon="6.93114">
        <ele>247.68</ele>
        <time>2014-03-12T12:43:16Z</time>
      </trkpt>
      <trkpt lat="49.11531" lon="6.93112">
        <ele>247.68</ele>
        <time>2014-03-12T12:43:17Z</time>
      </trkpt>
      <trkpt lat="49.11541" lon="6.93091">
        <ele>248.64</ele>
        <time>2014-03-12T12:43:33Z</time>
      </trkpt>
      <trkpt lat="49.11552" lon="6.93071">
        <ele>249.12</ele>
        <time>2014-03-12T12:43:49Z</time>
      </trkpt>
      <trkpt lat="49.1156" lon="6.93047">
        <ele>250.08</ele>
        <time>2014-03-12T12:44:04Z</time>
      </trkpt>
      <trkpt lat="49.11567" lon="6.93026">
        <ele>251.04</ele>
        <time>2014-03-12T12:44:17Z</time>
      </trkpt>
      <trkpt lat="49.11574" lon="6.93002">
        <ele>252.48</ele>
        <time>2014-03-12T12:44:31Z</time>
      </trkpt>
      <trkpt lat="49.11583" lon="6.92978">
        <ele>252.48</ele>
        <time>2014-03-12T12:44:46Z</time>
      </trkpt>
      <trkpt lat="49.11589" lon="6.92952">
        <ele>251.04</ele>
        <time>2014-03-12T12:45:02Z</time>
      </trkpt>
      <trkpt lat="49.11596" lon="6.92928">
        <ele>250.56</ele>
        <time>2014-03-12T12:45:16Z</time>
      </trkpt>
      <trkpt lat="49.11603" lon="6.92907">
        <ele>251.04</ele>
        <time>2014-03-12T12:45:31Z</time>
      </trkpt>
      <trkpt lat="49.11604" lon="6.92905">
        <ele>251.04</ele>
        <time>2014-03-12T12:45:50Z</time>
      </trkpt>
      <trkpt lat="49.11603" lon="6.92901">
        <ele>252.96</ele>
        <time>2014-03-12T12:46:11Z</time>
      </trkpt>
      <trkpt lat="49.11603" lon="6.92902">
        <ele>251.52</ele>
        <time>2014-03-12T12:46:42Z</time>
      </trkpt>
      <trkpt lat="49.11609" lon="6.92886">
        <ele>251.04</ele>
        <time>2014-03-12T12:46:57Z</time>
      </trkpt>
      <trkpt lat="49.11617" lon="6.92857">
        <ele>248.64</ele>
        <time>2014-03-12T12:47:13Z</time>
      </trkpt>
      <trkpt lat="49.11619" lon="6.92853">
        <ele>248.64</ele>
        <time>2014-03-12T12:47:15Z</time>
      </trkpt>
      <trkpt lat="49.11629" lon="6.92831">
        <ele>247.68</ele>
        <time>2014-03-12T12:47:30Z</time>
      </trkpt>
      <trkpt lat="49.1164" lon="6.92794">
        <ele>247.2</ele>
        <time>2014-03-12T12:47:50Z</time>
      </trkpt>
      <trkpt lat="49.11652" lon="6.92758">
        <ele>250.56</ele>
        <time>2014-03-12T12:48:07Z</time>
      </trkpt>
      <trkpt lat="49.11663" lon="6.92723">
        <ele>252</ele>
        <time>2014-03-12T12:48:26Z</time>
      </trkpt>
      <trkpt lat="49.11671" lon="6.9269">
        <ele>252</ele>
        <time>2014-03-12T12:48:44Z</time>
      </trkpt>
      <trkpt lat="49.11679" lon="6.92661">
        <ele>252.96</ele>
        <time>2014-03-12T12:49:01Z</time>
      </trkpt>
      <trkpt lat="49.11688" lon="6.92631">
        <ele>253.93</ele>
        <time>2014-03-12T12:49:17Z</time>
      </trkpt>
      <trkpt lat="49.11696" lon="6.92599">
        <ele>255.85</ele>
        <time>2014-03-12T12:49:35Z</time>
      </trkpt>
      <trkpt lat="49.11702" lon="6.92574">
        <ele>256.33</ele>
        <time>2014-03-12T12:49:49Z</time>
      </trkpt>
      <trkpt lat="49.1171" lon="6.92543">
        <ele>256.33</ele>
        <time>2014-03-12T12:50:06Z</time>
      </trkpt>
      <trkpt lat="49.11716" lon="6.92515">
        <ele>256.33</ele>
        <time>2014-03-12T12:50:23Z</time>
      </trkpt>
      <trkpt lat="49.11723" lon="6.92482">
        <ele>255.85</ele>
        <time>2014-03-12T12:50:41Z</time>
      </trkpt>
      <trkpt lat="49.11729" lon="6.92456">
        <ele>256.33</ele>
        <time>2014-03-12T12:50:58Z</time>
      </trkpt>
      <trkpt lat="49.1173" lon="6.9245">
        <ele>256.33</ele>
        <time>2014-03-12T12:51:16Z</time>
      </trkpt>
      <trkpt lat="49.11737" lon="6.92421">
        <ele>257.29</ele>
        <time>2014-03-12T12:51:33Z</time>
      </trkpt>
      <trkpt lat="49.11745" lon="6.92391">
        <ele>257.29</ele>
        <time>2014-03-12T12:51:50Z</time>
      </trkpt>
      <trkpt lat="49.11754" lon="6.92357">
        <ele>258.73</ele>
        <time>2014-03-12T12:52:08Z</time>
      </trkpt>
      <trkpt lat="49.11764" lon="6.92332">
        <ele>259.69</ele>
        <time>2014-03-12T12:52:22Z</time>
      </trkpt>
      <trkpt lat="49.11778" lon="6.92304">
        <ele>260.17</ele>
        <time>2014-03-12T12:52:39Z</time>
      </trkpt>
      <trkpt lat="49.11794" lon="6.92288">
        <ele>262.1</ele>
        <time>2014-03-12T12:52:55Z</time>
      </trkpt>
      <trkpt lat="49.11808" lon="6.92282">
        <ele>263.06</ele>
        <time>2014-03-12T12:53:07Z</time>
      </trkpt>
      <trkpt lat="49.11816" lon="6.9226">
        <ele>263.54</ele>
        <time>2014-03-12T12:53:21Z</time>
      </trkpt>
      <trkpt lat="49.11823" lon="6.92239">
        <ele>263.54</ele>
        <time>2014-03-12T12:53:34Z</time>
      </trkpt>
      <trkpt lat="49.11833" lon="6.92207">
        <ele>263.54</ele>
        <time>2014-03-12T12:53:52Z</time>
      </trkpt>
      <trkpt lat="49.11842" lon="6.92176">
        <ele>264.98</ele>
        <time>2014-03-12T12:54:09Z</time>
      </trkpt>
      <trkpt lat="49.11849" lon="6.92151">
        <ele>265.94</ele>
        <time>2014-03-12T12:54:23Z</time>
      </trkpt>
      <trkpt lat="49.11857" lon="6.92124">
        <ele>267.86</ele>
        <time>2014-03-12T12:54:39Z</time>
      </trkpt>
      <trkpt lat="49.11859" lon="6.9212">
        <ele>268.35</ele>
        <time>2014-03-12T12:54:42Z</time>
      </trkpt>
      <trkpt lat="49.11866" lon="6.92098">
        <ele>268.35</ele>
        <time>2014-03-12T12:54:56Z</time>
      </trkpt>
      <trkpt lat="49.11868" lon="6.92091">
        <ele>268.35</ele>
        <time>2014-03-12T12:55:00Z</time>
      </trkpt>
      <trkpt lat="49.11869" lon="6.92083">
        <ele>268.35</ele>
        <time>2014-03-12T12:55:04Z</time>
      </trkpt>
      <trkpt lat="49.11877" lon="6.92053">
        <ele>268.83</ele>
        <time>2014-03-12T12:55:21Z</time>
      </trkpt>
      <trkpt lat="49.11888" lon="6.92019">
        <ele>269.31</ele>
        <time>2014-03-12T12:55:40Z</time>
      </trkpt>
      <trkpt lat="49.11896" lon="6.91991">
        <ele>268.35</ele>
        <time>2014-03-12T12:55:55Z</time>
      </trkpt>
      <trkpt lat="49.11899" lon="6.9198">
        <ele>268.83</ele>
        <time>2014-03-12T12:56:02Z</time>
      </trkpt>
      <trkpt lat="49.11906" lon="6.9195">
        <ele>268.35</ele>
        <time>2014-03-12T12:56:19Z</time>
      </trkpt>
      <trkpt lat="49.11913" lon="6.91924">
        <ele>268.83</ele>
        <time>2014-03-12T12:56:33Z</time>
      </trkpt>
      <trkpt lat="49.11921" lon="6.91892">
        <ele>268.83</ele>
        <time>2014-03-12T12:56:51Z</time>
      </trkpt>
      <trkpt lat="49.11929" lon="6.91864">
        <ele>268.35</ele>
        <time>2014-03-12T12:57:07Z</time>
      </trkpt>
      <trkpt lat="49.11936" lon="6.91839">
        <ele>270.27</ele>
        <time>2014-03-12T12:57:24Z</time>
      </trkpt>
      <trkpt lat="49.11938" lon="6.91834">
        <ele>270.27</ele>
        <time>2014-03-12T12:57:38Z</time>
      </trkpt>
      <trkpt lat="49.11942" lon="6.91825">
        <ele>270.75</ele>
        <time>2014-03-12T12:58:06Z</time>
      </trkpt>
      <trkpt lat="49.11948" lon="6.91811">
        <ele>270.27</ele>
        <time>2014-03-12T12:58:15Z</time>
      </trkpt>
      <trkpt lat="49.11957" lon="6.9179">
        <ele>272.67</ele>
        <time>2014-03-12T12:58:26Z</time>
      </trkpt>
      <trkpt lat="49.11969" lon="6.91762">
        <ele>273.63</ele>
        <time>2014-03-12T12:58:43Z</time>
      </trkpt>
      <trkpt lat="49.11981" lon="6.91726">
        <ele>274.59</ele>
        <time>2014-03-12T12:59:03Z</time>
      </trkpt>
      <trkpt lat="49.1199" lon="6.91702">
        <ele>273.63</ele>
        <time>2014-03-12T12:59:17Z</time>
      </trkpt>
      <trkpt lat="49.12004" lon="6.91674">
        <ele>273.15</ele>
        <time>2014-03-12T12:59:34Z</time>
      </trkpt>
      <trkpt lat="49.12019" lon="6.91641">
        <ele>273.15</ele>
        <time>2014-03-12T12:59:54Z</time>
      </trkpt>
      <trkpt lat="49.12034" lon="6.91617">
        <ele>273.63</ele>
        <time>2014-03-12T13:00:09Z</time>
      </trkpt>
      <trkpt lat="49.12055" lon="6.91594">
        <ele>273.15</ele>
        <time>2014-03-12T13:00:30Z</time>
      </trkpt>
      <trkpt lat="49.12069" lon="6.9158">
        <ele>273.15</ele>
        <time>2014-03-12T13:00:43Z</time>
      </trkpt>
      <trkpt lat="49.12072" lon="6.91574">
        <ele>272.67</ele>
        <time>2014-03-12T13:00:47Z</time>
      </trkpt>
      <trkpt lat="49.12093" lon="6.91551">
        <ele>272.67</ele>
        <time>2014-03-12T13:01:06Z</time>
      </trkpt>
      <trkpt lat="49.12112" lon="6.91519">
        <ele>272.19</ele>
        <time>2014-03-12T13:01:26Z</time>
      </trkpt>
      <trkpt lat="49.12126" lon="6.91496">
        <ele>271.23</ele>
        <time>2014-03-12T13:01:44Z</time>
      </trkpt>
      <trkpt lat="49.12134" lon="6.9149">
        <ele>270.75</ele>
        <time>2014-03-12T13:01:50Z</time>
      </trkpt>
      <trkpt lat="49.12154" lon="6.91466">
        <ele>269.79</ele>
        <time>2014-03-12T13:02:08Z</time>
      </trkpt>
      <trkpt lat="49.12168" lon="6.91429">
        <ele>268.35</ele>
        <time>2014-03-12T13:02:30Z</time>
      </trkpt>
      <trkpt lat="49.12177" lon="6.91414">
        <ele>266.9</ele>
        <time>2014-03-12T13:02:39Z</time>
      </trkpt>
      <trkpt lat="49.12187" lon="6.91374">
        <ele>269.31</ele>
        <time>2014-03-12T13:03:00Z</time>
      </trkpt>
      <trkpt lat="49.12188" lon="6.91355">
        <ele>270.27</ele>
        <time>2014-03-12T13:03:13Z</time>
      </trkpt>
      <trkpt lat="49.12209" lon="6.91323">
        <ele>274.11</ele>
        <time>2014-03-12T13:03:32Z</time>
      </trkpt>
      <trkpt lat="49.12226" lon="6.91313">
        <ele>274.11</ele>
        <time>2014-03-12T13:03:46Z</time>
      </trkpt>
      <trkpt lat="49.12248" lon="6.91301">
        <ele>269.79</ele>
        <time>2014-03-12T13:04:06Z</time>
      </trkpt>
      <trkpt lat="49.12275" lon="6.91301">
        <ele>265.94</ele>
        <time>2014-03-12T13:04:24Z</time>
      </trkpt>
      <trkpt lat="49.12298" lon="6.91311">
        <ele>264.02</ele>
        <time>2014-03-12T13:04:41Z</time>
      </trkpt>
      <trkpt lat="49.12321" lon="6.91327">
        <ele>263.54</ele>
        <time>2014-03-12T13:04:59Z</time>
      </trkpt>
      <trkpt lat="49.12344" lon="6.9133">
        <ele>266.9</ele>
        <time>2014-03-12T13:05:16Z</time>
      </trkpt>
      <trkpt lat="49.12367" lon="6.91349">
        <ele>268.35</ele>
        <time>2014-03-12T13:05:34Z</time>
      </trkpt>
      <trkpt lat="49.12374" lon="6.9137">
        <ele>263.54</ele>
        <time>2014-03-12T13:05:49Z</time>
      </trkpt>
      <trkpt lat="49.12375" lon="6.91377">
        <ele>262.1</ele>
        <time>2014-03-12T13:05:54Z</time>
      </trkpt>
      <trkpt lat="49.12376" lon="6.91415">
        <ele>259.69</ele>
        <time>2014-03-12T13:06:11Z</time>
      </trkpt>
      <trkpt lat="49.12379" lon="6.91422">
        <ele>261.62</ele>
        <time>2014-03-12T13:06:15Z</time>
      </trkpt>
      <trkpt lat="49.12405" lon="6.91448">
        <ele>271.23</ele>
        <time>2014-03-12T13:06:36Z</time>
      </trkpt>
      <trkpt lat="49.12427" lon="6.91462">
        <ele>270.27</ele>
        <time>2014-03-12T13:06:56Z</time>
      </trkpt>
      <trkpt lat="49.12443" lon="6.91479">
        <ele>271.71</ele>
        <time>2014-03-12T13:07:10Z</time>
      </trkpt>
      <trkpt lat="49.12456" lon="6.91483">
        <ele>273.15</ele>
        <time>2014-03-12T13:07:27Z</time>
      </trkpt>
      <trkpt lat="49.12479" lon="6.91489">
        <ele>273.63</ele>
        <time>2014-03-12T13:07:45Z</time>
      </trkpt>
      <trkpt lat="49.12497" lon="6.91496">
        <ele>277.96</ele>
        <time>2014-03-12T13:07:59Z</time>
      </trkpt>
      <trkpt lat="49.12517" lon="6.91496">
        <ele>283.25</ele>
        <time>2014-03-12T13:08:18Z</time>
      </trkpt>
      <trkpt lat="49.12537" lon="6.91494">
        <ele>285.65</ele>
        <time>2014-03-12T13:08:36Z</time>
      </trkpt>
      <trkpt lat="49.12551" lon="6.9149">
        <ele>288.53</ele>
        <time>2014-03-12T13:08:47Z</time>
      </trkpt>
      <trkpt lat="49.12576" lon="6.91482">
        <ele>294.3</ele>
        <time>2014-03-12T13:09:05Z</time>
      </trkpt>
      <trkpt lat="49.12585" lon="6.91479">
        <ele>299.11</ele>
        <time>2014-03-12T13:09:18Z</time>
      </trkpt>
      <trkpt lat="49.12604" lon="6.91469">
        <ele>299.59</ele>
        <time>2014-03-12T13:09:35Z</time>
      </trkpt>
      <trkpt lat="49.12621" lon="6.91458">
        <ele>300.55</ele>
        <time>2014-03-12T13:09:49Z</time>
      </trkpt>
      <trkpt lat="49.12636" lon="6.91445">
        <ele>301.03</ele>
        <time>2014-03-12T13:10:03Z</time>
      </trkpt>
      <trkpt lat="49.12651" lon="6.91429">
        <ele>300.07</ele>
        <time>2014-03-12T13:10:18Z</time>
      </trkpt>
      <trkpt lat="49.12671" lon="6.91418">
        <ele>301.03</ele>
        <time>2014-03-12T13:10:34Z</time>
      </trkpt>
      <trkpt lat="49.12686" lon="6.91409">
        <ele>301.99</ele>
        <time>2014-03-12T13:10:47Z</time>
      </trkpt>
      <trkpt lat="49.12705" lon="6.9139">
        <ele>303.91</ele>
        <time>2014-03-12T13:11:05Z</time>
      </trkpt>
      <trkpt lat="49.12723" lon="6.91377">
        <ele>304.88</ele>
        <time>2014-03-12T13:11:20Z</time>
      </trkpt>
      <trkpt lat="49.1274" lon="6.9138">
        <ele>305.84</ele>
        <time>2014-03-12T13:11:35Z</time>
      </trkpt>
      <trkpt lat="49.12744" lon="6.91383">
        <ele>306.32</ele>
        <time>2014-03-12T13:11:38Z</time>
      </trkpt>
      <trkpt lat="49.12762" lon="6.91395">
        <ele>307.76</ele>
        <time>2014-03-12T13:11:54Z</time>
      </trkpt>
      <trkpt lat="49.1278" lon="6.91407">
        <ele>309.2</ele>
        <time>2014-03-12T13:12:10Z</time>
      </trkpt>
      <trkpt lat="49.12799" lon="6.91416">
        <ele>311.12</ele>
        <time>2014-03-12T13:12:26Z</time>
      </trkpt>
      <trkpt lat="49.12817" lon="6.91427">
        <ele>310.64</ele>
        <time>2014-03-12T13:12:42Z</time>
      </trkpt>
      <trkpt lat="49.12838" lon="6.91432">
        <ele>311.12</ele>
        <time>2014-03-12T13:12:57Z</time>
      </trkpt>
      <trkpt lat="49.12859" lon="6.91423">
        <ele>312.57</ele>
        <time>2014-03-12T13:13:14Z</time>
      </trkpt>
      <trkpt lat="49.12878" lon="6.91407">
        <ele>314.49</ele>
        <time>2014-03-12T13:13:30Z</time>
      </trkpt>
      <trkpt lat="49.12897" lon="6.91387">
        <ele>314.97</ele>
        <time>2014-03-12T13:13:49Z</time>
      </trkpt>
      <trkpt lat="49.12915" lon="6.91364">
        <ele>316.41</ele>
        <time>2014-03-12T13:14:07Z</time>
      </trkpt>
      <trkpt lat="49.1293" lon="6.91346">
        <ele>316.41</ele>
        <time>2014-03-12T13:14:22Z</time>
      </trkpt>
      <trkpt lat="49.12946" lon="6.91324">
        <ele>317.85</ele>
        <time>2014-03-12T13:14:39Z</time>
      </trkpt>
      <trkpt lat="49.12956" lon="6.91311">
        <ele>318.81</ele>
        <time>2014-03-12T13:14:50Z</time>
      </trkpt>
      <trkpt lat="49.12973" lon="6.9129">
        <ele>319.78</ele>
        <time>2014-03-12T13:15:06Z</time>
      </trkpt>
      <trkpt lat="49.12988" lon="6.91269">
        <ele>321.22</ele>
        <time>2014-03-12T13:15:22Z</time>
      </trkpt>
      <trkpt lat="49.13003" lon="6.91249">
        <ele>323.14</ele>
        <time>2014-03-12T13:15:37Z</time>
      </trkpt>
      <trkpt lat="49.13019" lon="6.91227">
        <ele>323.62</ele>
        <time>2014-03-12T13:15:54Z</time>
      </trkpt>
      <trkpt lat="49.13041" lon="6.9119">
        <ele>325.06</ele>
        <time>2014-03-12T13:16:16Z</time>
      </trkpt>
      <trkpt lat="49.13049" lon="6.91149">
        <ele>326.5</ele>
        <time>2014-03-12T13:16:37Z</time>
      </trkpt>
      <trkpt lat="49.13054" lon="6.91125">
        <ele>327.47</ele>
        <time>2014-03-12T13:16:49Z</time>
      </trkpt>
      <trkpt lat="49.13062" lon="6.91105">
        <ele>326.02</ele>
        <time>2014-03-12T13:17:00Z</time>
      </trkpt>
      <trkpt lat="49.13072" lon="6.91085">
        <ele>326.02</ele>
        <time>2014-03-12T13:17:16Z</time>
      </trkpt>
      <trkpt lat="49.13072" lon="6.91081">
        <ele>327.95</ele>
        <time>2014-03-12T13:17:32Z</time>
      </trkpt>
      <trkpt lat="49.13072" lon="6.91077">
        <ele>328.43</ele>
        <time>2014-03-12T13:17:48Z</time>
      </trkpt>
      <trkpt lat="49.13079" lon="6.91069">
        <ele>327.95</ele>
        <time>2014-03-12T13:17:56Z</time>
      </trkpt>
      <trkpt lat="49.13097" lon="6.91067">
        <ele>326.99</ele>
        <time>2014-03-12T13:18:10Z</time>
      </trkpt>
      <trkpt lat="49.13114" lon="6.91065">
        <ele>327.95</ele>
        <time>2014-03-12T13:18:24Z</time>
      </trkpt>
      <trkpt lat="49.13132" lon="6.91063">
        <ele>328.91</ele>
        <time>2014-03-12T13:18:38Z</time>
      </trkpt>
      <trkpt lat="49.13152" lon="6.91059">
        <ele>329.87</ele>
        <time>2014-03-12T13:18:53Z</time>
      </trkpt>
      <trkpt lat="49.13169" lon="6.91051">
        <ele>327.47</ele>
        <time>2014-03-12T13:19:08Z</time>
      </trkpt>
      <trkpt lat="49.13189" lon="6.9104">
        <ele>326.5</ele>
        <time>2014-03-12T13:19:24Z</time>
      </trkpt>
      <trkpt lat="49.13194" lon="6.91037">
        <ele>325.54</ele>
        <time>2014-03-12T13:19:29Z</time>
      </trkpt>
      <trkpt lat="49.13212" lon="6.91025">
        <ele>321.7</ele>
        <time>2014-03-12T13:19:44Z</time>
      </trkpt>
      <trkpt lat="49.1323" lon="6.91012">
        <ele>315.45</ele>
        <time>2014-03-12T13:20:01Z</time>
      </trkpt>
      <trkpt lat="49.13244" lon="6.90998">
        <ele>309.2</ele>
        <time>2014-03-12T13:20:16Z</time>
      </trkpt>
      <trkpt lat="49.13265" lon="6.90978">
        <ele>308.72</ele>
        <time>2014-03-12T13:20:33Z</time>
      </trkpt>
      <trkpt lat="49.13288" lon="6.90956">
        <ele>311.12</ele>
        <time>2014-03-12T13:20:48Z</time>
      </trkpt>
      <trkpt lat="49.13313" lon="6.90926">
        <ele>314.49</ele>
        <time>2014-03-12T13:21:09Z</time>
      </trkpt>
      <trkpt lat="49.13337" lon="6.90903">
        <ele>317.37</ele>
        <time>2014-03-12T13:21:27Z</time>
      </trkpt>
      <trkpt lat="49.1336" lon="6.90873">
        <ele>317.37</ele>
        <time>2014-03-12T13:21:49Z</time>
      </trkpt>
      <trkpt lat="49.13383" lon="6.90848">
        <ele>322.18</ele>
        <time>2014-03-12T13:22:08Z</time>
      </trkpt>
      <trkpt lat="49.13399" lon="6.90831">
        <ele>321.22</ele>
        <time>2014-03-12T13:22:24Z</time>
      </trkpt>
      <trkpt lat="49.13426" lon="6.90826">
        <ele>317.37</ele>
        <time>2014-03-12T13:22:47Z</time>
      </trkpt>
      <trkpt lat="49.13429" lon="6.90826">
        <ele>316.89</ele>
        <time>2014-03-12T13:22:49Z</time>
      </trkpt>
      <trkpt lat="49.13459" lon="6.90821">
        <ele>315.93</ele>
        <time>2014-03-12T13:23:10Z</time>
      </trkpt>
      <trkpt lat="49.13491" lon="6.90793">
        <ele>315.93</ele>
        <time>2014-03-12T13:23:35Z</time>
      </trkpt>
      <trkpt lat="49.13521" lon="6.90767">
        <ele>319.3</ele>
        <time>2014-03-12T13:23:55Z</time>
      </trkpt>
      <trkpt lat="49.13552" lon="6.90736">
        <ele>323.62</ele>
        <time>2014-03-12T13:24:16Z</time>
      </trkpt>
      <trkpt lat="49.13572" lon="6.90709">
        <ele>326.5</ele>
        <time>2014-03-12T13:24:35Z</time>
      </trkpt>
      <trkpt lat="49.13582" lon="6.90689">
        <ele>323.62</ele>
        <time>2014-03-12T13:24:49Z</time>
      </trkpt>
      <trkpt lat="49.13589" lon="6.90672">
        <ele>317.37</ele>
        <time>2014-03-12T13:25:02Z</time>
      </trkpt>
      <trkpt lat="49.13598" lon="6.90658">
        <ele>315.93</ele>
        <time>2014-03-12T13:25:13Z</time>
      </trkpt>
      <trkpt lat="49.13605" lon="6.90645">
        <ele>315.45</ele>
        <time>2014-03-12T13:25:21Z</time>
      </trkpt>
      <trkpt lat="49.13617" lon="6.90616">
        <ele>314.49</ele>
        <time>2014-03-12T13:25:38Z</time>
      </trkpt>
      <trkpt lat="49.13635" lon="6.90582">
        <ele>316.41</ele>
        <time>2014-03-12T13:25:58Z</time>
      </trkpt>
      <trkpt lat="49.13662" lon="6.90551">
        <ele>317.85</ele>
        <time>2014-03-12T13:26:22Z</time>
      </trkpt>
      <trkpt lat="49.13682" lon="6.90518">
        <ele>315.93</ele>
        <time>2014-03-12T13:26:43Z</time>
      </trkpt>
      <trkpt lat="49.13704" lon="6.90491">
        <ele>317.37</ele>
        <time>2014-03-12T13:27:05Z</time>
      </trkpt>
      <trkpt lat="49.1373" lon="6.90463">
        <ele>316.89</ele>
        <time>2014-03-12T13:27:25Z</time>
      </trkpt>
      <trkpt lat="49.13743" lon="6.90445">
        <ele>316.41</ele>
        <time>2014-03-12T13:27:38Z</time>
      </trkpt>
      <trkpt lat="49.13764" lon="6.90424">
        <ele>316.89</ele>
        <time>2014-03-12T13:27:59Z</time>
      </trkpt>
      <trkpt lat="49.1379" lon="6.90399">
        <ele>315.93</ele>
        <time>2014-03-12T13:28:18Z</time>
      </trkpt>
      <trkpt lat="49.1381" lon="6.90375">
        <ele>315.45</ele>
        <time>2014-03-12T13:28:36Z</time>
      </trkpt>
      <trkpt lat="49.13833" lon="6.90354">
        <ele>314.01</ele>
        <time>2014-03-12T13:28:56Z</time>
      </trkpt>
      <trkpt lat="49.1384" lon="6.90348">
        <ele>313.53</ele>
        <time>2014-03-12T13:29:04Z</time>
      </trkpt>
      <trkpt lat="49.13861" lon="6.9033">
        <ele>312.09</ele>
        <time>2014-03-12T13:29:20Z</time>
      </trkpt>
      <trkpt lat="49.13884" lon="6.90308">
        <ele>309.68</ele>
        <time>2014-03-12T13:29:40Z</time>
      </trkpt>
      <trkpt lat="49.139" lon="6.90288">
        <ele>306.32</ele>
        <time>2014-03-12T13:29:57Z</time>
      </trkpt>
      <trkpt lat="49.1391" lon="6.90279">
        <ele>303.91</ele>
        <time>2014-03-12T13:30:08Z</time>
      </trkpt>
      <trkpt lat="49.13938" lon="6.90254">
        <ele>302.95</ele>
        <time>2014-03-12T13:30:30Z</time>
      </trkpt>
      <trkpt lat="49.13962" lon="6.90234">
        <ele>304.88</ele>
        <time>2014-03-12T13:30:49Z</time>
      </trkpt>
      <trkpt lat="49.13982" lon="6.90219">
        <ele>306.32</ele>
        <time>2014-03-12T13:31:08Z</time>
      </trkpt>
      <trkpt lat="49.13993" lon="6.90214">
        <ele>309.68</ele>
        <time>2014-03-12T13:31:28Z</time>
      </trkpt>
      <trkpt lat="49.14017" lon="6.90189">
        <ele>312.09</ele>
        <time>2014-03-12T13:31:47Z</time>
      </trkpt>
      <trkpt lat="49.14036" lon="6.90165">
        <ele>315.45</ele>
        <time>2014-03-12T13:32:05Z</time>
      </trkpt>
      <trkpt lat="49.14049" lon="6.90146">
        <ele>312.09</ele>
        <time>2014-03-12T13:32:19Z</time>
      </trkpt>
      <trkpt lat="49.14049" lon="6.90145">
        <ele>311.6</ele>
        <time>2014-03-12T13:32:20Z</time>
      </trkpt>
      <trkpt lat="49.14061" lon="6.9012">
        <ele>301.99</ele>
        <time>2014-03-12T13:32:38Z</time>
      </trkpt>
      <trkpt lat="49.14079" lon="6.90096">
        <ele>300.55</ele>
        <time>2014-03-12T13:32:57Z</time>
      </trkpt>
      <trkpt lat="49.14104" lon="6.90069">
        <ele>301.51</ele>
        <time>2014-03-12T13:33:17Z</time>
      </trkpt>
      <trkpt lat="49.14131" lon="6.90043">
        <ele>303.91</ele>
        <time>2014-03-12T13:33:37Z</time>
      </trkpt>
      <trkpt lat="49.14152" lon="6.90022">
        <ele>306.8</ele>
        <time>2014-03-12T13:33:55Z</time>
      </trkpt>
      <trkpt lat="49.14169" lon="6.89989">
        <ele>307.28</ele>
        <time>2014-03-12T13:34:13Z</time>
      </trkpt>
      <trkpt lat="49.14183" lon="6.89959">
        <ele>306.32</ele>
        <time>2014-03-12T13:34:32Z</time>
      </trkpt>
      <trkpt lat="49.14197" lon="6.89922">
        <ele>310.16</ele>
        <time>2014-03-12T13:34:51Z</time>
      </trkpt>
      <trkpt lat="49.1421" lon="6.89883">
        <ele>314.01</ele>
        <time>2014-03-12T13:35:12Z</time>
      </trkpt>
      <trkpt lat="49.14212" lon="6.8988">
        <ele>314.49</ele>
        <time>2014-03-12T13:35:14Z</time>
      </trkpt>
      <trkpt lat="49.14216" lon="6.89868">
        <ele>314.97</ele>
        <time>2014-03-12T13:35:23Z</time>
      </trkpt>
      <trkpt lat="49.14227" lon="6.89838">
        <ele>313.53</ele>
        <time>2014-03-12T13:35:41Z</time>
      </trkpt>
      <trkpt lat="49.14235" lon="6.89816">
        <ele>311.12</ele>
        <time>2014-03-12T13:35:52Z</time>
      </trkpt>
      <trkpt lat="49.14241" lon="6.8981">
        <ele>309.68</ele>
        <time>2014-03-12T13:35:56Z</time>
      </trkpt>
      <trkpt lat="49.14255" lon="6.89795">
        <ele>305.84</ele>
        <time>2014-03-12T13:36:12Z</time>
      </trkpt>
      <trkpt lat="49.1426" lon="6.8979">
        <ele>305.36</ele>
        <time>2014-03-12T13:36:17Z</time>
      </trkpt>
      <trkpt lat="49.14283" lon="6.89783">
        <ele>303.91</ele>
        <time>2014-03-12T13:36:34Z</time>
      </trkpt>
      <trkpt lat="49.14306" lon="6.89775">
        <ele>303.91</ele>
        <time>2014-03-12T13:36:51Z</time>
      </trkpt>
      <trkpt lat="49.14323" lon="6.89763">
        <ele>301.51</ele>
        <time>2014-03-12T13:37:07Z</time>
      </trkpt>
      <trkpt lat="49.14331" lon="6.89755">
        <ele>299.59</ele>
        <time>2014-03-12T13:37:14Z</time>
      </trkpt>
      <trkpt lat="49.14354" lon="6.89729">
        <ele>297.67</ele>
        <time>2014-03-12T13:37:34Z</time>
      </trkpt>
      <trkpt lat="49.14369" lon="6.89703">
        <ele>299.59</ele>
        <time>2014-03-12T13:37:50Z</time>
      </trkpt>
      <trkpt lat="49.14385" lon="6.89671">
        <ele>298.15</ele>
        <time>2014-03-12T13:38:10Z</time>
      </trkpt>
      <trkpt lat="49.14396" lon="6.89643">
        <ele>298.15</ele>
        <time>2014-03-12T13:38:26Z</time>
      </trkpt>
      <trkpt lat="49.14411" lon="6.89609">
        <ele>297.18</ele>
        <time>2014-03-12T13:38:45Z</time>
      </trkpt>
      <trkpt lat="49.14431" lon="6.89589">
        <ele>299.59</ele>
        <time>2014-03-12T13:39:02Z</time>
      </trkpt>
      <trkpt lat="49.14451" lon="6.89568">
        <ele>294.3</ele>
        <time>2014-03-12T13:39:21Z</time>
      </trkpt>
      <trkpt lat="49.14465" lon="6.89552">
        <ele>290.94</ele>
        <time>2014-03-12T13:39:36Z</time>
      </trkpt>
      <trkpt lat="49.1449" lon="6.89528">
        <ele>287.57</ele>
        <time>2014-03-12T13:39:55Z</time>
      </trkpt>
      <trkpt lat="49.14506" lon="6.89511">
        <ele>284.21</ele>
        <time>2014-03-12T13:40:11Z</time>
      </trkpt>
      <trkpt lat="49.14518" lon="6.89489">
        <ele>280.84</ele>
        <time>2014-03-12T13:40:27Z</time>
      </trkpt>
      <trkpt lat="49.14536" lon="6.89469">
        <ele>277</ele>
        <time>2014-03-12T13:40:43Z</time>
      </trkpt>
      <trkpt lat="49.14561" lon="6.89451">
        <ele>281.8</ele>
        <time>2014-03-12T13:41:02Z</time>
      </trkpt>
      <trkpt lat="49.1458" lon="6.89449">
        <ele>280.36</ele>
        <time>2014-03-12T13:41:16Z</time>
      </trkpt>
      <trkpt lat="49.14605" lon="6.89455">
        <ele>279.4</ele>
        <time>2014-03-12T13:41:35Z</time>
      </trkpt>
      <trkpt lat="49.14616" lon="6.89438">
        <ele>288.05</ele>
        <time>2014-03-12T13:41:47Z</time>
      </trkpt>
      <trkpt lat="49.14623" lon="6.89436">
        <ele>288.05</ele>
        <time>2014-03-12T13:41:54Z</time>
      </trkpt>
      <trkpt lat="49.14633" lon="6.89428">
        <ele>289.01</ele>
        <time>2014-03-12T13:42:12Z</time>
      </trkpt>
      <trkpt lat="49.14639" lon="6.89422">
        <ele>289.97</ele>
        <time>2014-03-12T13:42:53Z</time>
      </trkpt>
      <trkpt lat="49.14661" lon="6.8941">
        <ele>289.97</ele>
        <time>2014-03-12T13:43:12Z</time>
      </trkpt>
      <trkpt lat="49.14682" lon="6.89395">
        <ele>293.34</ele>
        <time>2014-03-12T13:43:28Z</time>
      </trkpt>
      <trkpt lat="49.14686" lon="6.89387">
        <ele>293.34</ele>
        <time>2014-03-12T13:43:37Z</time>
      </trkpt>
      <trkpt lat="49.14687" lon="6.89381">
        <ele>294.78</ele>
        <time>2014-03-12T13:43:51Z</time>
      </trkpt>
      <trkpt lat="49.1469" lon="6.89379">
        <ele>297.67</ele>
        <time>2014-03-12T13:44:24Z</time>
      </trkpt>
      <trkpt lat="49.14689" lon="6.89371">
        <ele>299.11</ele>
        <time>2014-03-12T13:44:33Z</time>
      </trkpt>
      <trkpt lat="49.14684" lon="6.89333">
        <ele>301.51</ele>
        <time>2014-03-12T13:44:50Z</time>
      </trkpt>
      <trkpt lat="49.14677" lon="6.89301">
        <ele>302.95</ele>
        <time>2014-03-12T13:45:08Z</time>
      </trkpt>
      <trkpt lat="49.14676" lon="6.89295">
        <ele>303.43</ele>
        <time>2014-03-12T13:45:11Z</time>
      </trkpt>
      <trkpt lat="49.1468" lon="6.89275">
        <ele>304.88</ele>
        <time>2014-03-12T13:45:21Z</time>
      </trkpt>
      <trkpt lat="49.14687" lon="6.89263">
        <ele>305.84</ele>
        <time>2014-03-12T13:45:37Z</time>
      </trkpt>
      <trkpt lat="49.14689" lon="6.89254">
        <ele>305.36</ele>
        <time>2014-03-12T13:45:43Z</time>
      </trkpt>
      <trkpt lat="49.14684" lon="6.89262">
        <ele>303.43</ele>
        <time>2014-03-12T13:46:02Z</time>
      </trkpt>
      <trkpt lat="49.14684" lon="6.89259">
        <ele>302.47</ele>
        <time>2014-03-12T13:46:19Z</time>
      </trkpt>
      <trkpt lat="49.14703" lon="6.89226">
        <ele>299.59</ele>
        <time>2014-03-12T13:46:36Z</time>
      </trkpt>
      <trkpt lat="49.14722" lon="6.89193">
        <ele>303.43</ele>
        <time>2014-03-12T13:46:55Z</time>
      </trkpt>
      <trkpt lat="49.14729" lon="6.89185">
        <ele>304.88</ele>
        <time>2014-03-12T13:47:07Z</time>
      </trkpt>
      <trkpt lat="49.14733" lon="6.89176">
        <ele>305.36</ele>
        <time>2014-03-12T13:47:13Z</time>
      </trkpt>
      <trkpt lat="49.14721" lon="6.89157">
        <ele>303.43</ele>
        <time>2014-03-12T13:47:29Z</time>
      </trkpt>
      <trkpt lat="49.14699" lon="6.89125">
        <ele>304.39</ele>
        <time>2014-03-12T13:47:48Z</time>
      </trkpt>
      <trkpt lat="49.14674" lon="6.89105">
        <ele>302.47</ele>
        <time>2014-03-12T13:48:06Z</time>
      </trkpt>
      <trkpt lat="49.14655" lon="6.89086">
        <ele>304.39</ele>
        <time>2014-03-12T13:48:24Z</time>
      </trkpt>
      <trkpt lat="49.14635" lon="6.89062">
        <ele>306.32</ele>
        <time>2014-03-12T13:48:43Z</time>
      </trkpt>
      <trkpt lat="49.14622" lon="6.89042">
        <ele>306.8</ele>
        <time>2014-03-12T13:48:57Z</time>
      </trkpt>
      <trkpt lat="49.14612" lon="6.89022">
        <ele>310.64</ele>
        <time>2014-03-12T13:49:11Z</time>
      </trkpt>
      <trkpt lat="49.14604" lon="6.89005">
        <ele>312.57</ele>
        <time>2014-03-12T13:49:23Z</time>
      </trkpt>
      <trkpt lat="49.14598" lon="6.88987">
        <ele>312.09</ele>
        <time>2014-03-12T13:49:35Z</time>
      </trkpt>
      <trkpt lat="49.14592" lon="6.8896">
        <ele>314.01</ele>
        <time>2014-03-12T13:49:50Z</time>
      </trkpt>
      <trkpt lat="49.14584" lon="6.88931">
        <ele>316.41</ele>
        <time>2014-03-12T13:50:05Z</time>
      </trkpt>
      <trkpt lat="49.14579" lon="6.88906">
        <ele>317.37</ele>
        <time>2014-03-12T13:50:20Z</time>
      </trkpt>
      <trkpt lat="49.14581" lon="6.88879">
        <ele>314.97</ele>
        <time>2014-03-12T13:50:36Z</time>
      </trkpt>
      <trkpt lat="49.14589" lon="6.8885">
        <ele>317.37</ele>
        <time>2014-03-12T13:50:51Z</time>
      </trkpt>
      <trkpt lat="49.14594" lon="6.88835">
        <ele>318.33</ele>
        <time>2014-03-12T13:50:59Z</time>
      </trkpt>
      <trkpt lat="49.14597" lon="6.88831">
        <ele>319.3</ele>
        <time>2014-03-12T13:51:03Z</time>
      </trkpt>
      <trkpt lat="49.14608" lon="6.88803">
        <ele>320.26</ele>
        <time>2014-03-12T13:51:20Z</time>
      </trkpt>
      <trkpt lat="49.14617" lon="6.88781">
        <ele>320.26</ele>
        <time>2014-03-12T13:51:33Z</time>
      </trkpt>
      <trkpt lat="49.14621" lon="6.88769">
        <ele>322.18</ele>
        <time>2014-03-12T13:51:39Z</time>
      </trkpt>
      <trkpt lat="49.14624" lon="6.88762">
        <ele>323.62</ele>
        <time>2014-03-12T13:51:43Z</time>
      </trkpt>
      <trkpt lat="49.14632" lon="6.88734">
        <ele>321.7</ele>
        <time>2014-03-12T13:52:00Z</time>
      </trkpt>
      <trkpt lat="49.1464" lon="6.88706">
        <ele>320.74</ele>
        <time>2014-03-12T13:52:16Z</time>
      </trkpt>
      <trkpt lat="49.1465" lon="6.88674">
        <ele>320.74</ele>
        <time>2014-03-12T13:52:34Z</time>
      </trkpt>
      <trkpt lat="49.14654" lon="6.88657">
        <ele>322.66</ele>
        <time>2014-03-12T13:52:42Z</time>
      </trkpt>
      <trkpt lat="49.14655" lon="6.88652">
        <ele>322.18</ele>
        <time>2014-03-12T13:52:46Z</time>
      </trkpt>
      <trkpt lat="49.14666" lon="6.88617">
        <ele>319.3</ele>
        <time>2014-03-12T13:53:06Z</time>
      </trkpt>
      <trkpt lat="49.14678" lon="6.88581">
        <ele>318.81</ele>
        <time>2014-03-12T13:53:25Z</time>
      </trkpt>
      <trkpt lat="49.14692" lon="6.88538">
        <ele>316.89</ele>
        <time>2014-03-12T13:53:50Z</time>
      </trkpt>
      <trkpt lat="49.14695" lon="6.88528">
        <ele>317.37</ele>
        <time>2014-03-12T13:54:01Z</time>
      </trkpt>
      <trkpt lat="49.14702" lon="6.88503">
        <ele>315.45</ele>
        <time>2014-03-12T13:54:15Z</time>
      </trkpt>
      <trkpt lat="49.14715" lon="6.88465">
        <ele>314.01</ele>
        <time>2014-03-12T13:54:37Z</time>
      </trkpt>
      <trkpt lat="49.14728" lon="6.88416">
        <ele>315.93</ele>
        <time>2014-03-12T13:54:59Z</time>
      </trkpt>
      <trkpt lat="49.14737" lon="6.8839">
        <ele>315.93</ele>
        <time>2014-03-12T13:55:15Z</time>
      </trkpt>
      <trkpt lat="49.14745" lon="6.88356">
        <ele>317.37</ele>
        <time>2014-03-12T13:55:34Z</time>
      </trkpt>
      <trkpt lat="49.14754" lon="6.88315">
        <ele>314.97</ele>
        <time>2014-03-12T13:55:56Z</time>
      </trkpt>
      <trkpt lat="49.14761" lon="6.88276">
        <ele>314.01</ele>
        <time>2014-03-12T13:56:15Z</time>
      </trkpt>
      <trkpt lat="49.14764" lon="6.88254">
        <ele>314.01</ele>
        <time>2014-03-12T13:56:27Z</time>
      </trkpt>
      <trkpt lat="49.14771" lon="6.8821">
        <ele>314.97</ele>
        <time>2014-03-12T13:56:48Z</time>
      </trkpt>
      <trkpt lat="49.14773" lon="6.88204">
        <ele>314.97</ele>
        <time>2014-03-12T13:56:52Z</time>
      </trkpt>
      <trkpt lat="49.14782" lon="6.88173">
        <ele>312.57</ele>
        <time>2014-03-12T13:57:11Z</time>
      </trkpt>
      <trkpt lat="49.14792" lon="6.88131">
        <ele>314.49</ele>
        <time>2014-03-12T13:57:32Z</time>
      </trkpt>
      <trkpt lat="49.14804" lon="6.8809">
        <ele>315.93</ele>
        <time>2014-03-12T13:57:55Z</time>
      </trkpt>
      <trkpt lat="49.14818" lon="6.88051">
        <ele>314.49</ele>
        <time>2014-03-12T13:58:18Z</time>
      </trkpt>
      <trkpt lat="49.14824" lon="6.88031">
        <ele>313.05</ele>
        <time>2014-03-12T13:58:35Z</time>
      </trkpt>
      <trkpt lat="49.14838" lon="6.87999">
        <ele>311.6</ele>
        <time>2014-03-12T13:58:57Z</time>
      </trkpt>
      <trkpt lat="49.14855" lon="6.87964">
        <ele>313.05</ele>
        <time>2014-03-12T13:59:19Z</time>
      </trkpt>
      <trkpt lat="49.14879" lon="6.87936">
        <ele>309.2</ele>
        <time>2014-03-12T13:59:42Z</time>
      </trkpt>
      <trkpt lat="49.14899" lon="6.87918">
        <ele>303.91</ele>
        <time>2014-03-12T14:00:02Z</time>
      </trkpt>
      <trkpt lat="49.14926" lon="6.8789">
        <ele>310.16</ele>
        <time>2014-03-12T14:00:24Z</time>
      </trkpt>
      <trkpt lat="49.14936" lon="6.87862">
        <ele>304.39</ele>
        <time>2014-03-12T14:00:45Z</time>
      </trkpt>
      <trkpt lat="49.14945" lon="6.87841">
        <ele>297.18</ele>
        <time>2014-03-12T14:01:02Z</time>
      </trkpt>
      <trkpt lat="49.14954" lon="6.8781">
        <ele>291.42</ele>
        <time>2014-03-12T14:01:21Z</time>
      </trkpt>
      <trkpt lat="49.14974" lon="6.87757">
        <ele>299.59</ele>
        <time>2014-03-12T14:01:46Z</time>
      </trkpt>
      <trkpt lat="49.14986" lon="6.87717">
        <ele>302.95</ele>
        <time>2014-03-12T14:02:06Z</time>
      </trkpt>
      <trkpt lat="49.14989" lon="6.87683">
        <ele>328.43</ele>
        <time>2014-03-12T14:02:20Z</time>
      </trkpt>
      <trkpt lat="49.14998" lon="6.8765">
        <ele>326.99</ele>
        <time>2014-03-12T14:02:39Z</time>
      </trkpt>
      <trkpt lat="49.15009" lon="6.87608">
        <ele>326.02</ele>
        <time>2014-03-12T14:02:59Z</time>
      </trkpt>
      <trkpt lat="49.15018" lon="6.87577">
        <ele>325.54</ele>
        <time>2014-03-12T14:03:17Z</time>
      </trkpt>
      <trkpt lat="49.15026" lon="6.87548">
        <ele>319.3</ele>
        <time>2014-03-12T14:03:37Z</time>
      </trkpt>
      <trkpt lat="49.15034" lon="6.87504">
        <ele>318.33</ele>
        <time>2014-03-12T14:03:58Z</time>
      </trkpt>
      <trkpt lat="49.15028" lon="6.87488">
        <ele>315.45</ele>
        <time>2014-03-12T14:04:09Z</time>
      </trkpt>
      <trkpt lat="49.15014" lon="6.87459">
        <ele>327.47</ele>
        <time>2014-03-12T14:04:23Z</time>
      </trkpt>
      <trkpt lat="49.15007" lon="6.87444">
        <ele>324.58</ele>
        <time>2014-03-12T14:04:37Z</time>
      </trkpt>
      <trkpt lat="49.14994" lon="6.87415">
        <ele>321.7</ele>
        <time>2014-03-12T14:04:57Z</time>
      </trkpt>
      <trkpt lat="49.14981" lon="6.87384">
        <ele>318.81</ele>
        <time>2014-03-12T14:05:14Z</time>
      </trkpt>
      <trkpt lat="49.14968" lon="6.8735">
        <ele>317.85</ele>
        <time>2014-03-12T14:05:33Z</time>
      </trkpt>
      <trkpt lat="49.14948" lon="6.87293">
        <ele>327.47</ele>
        <time>2014-03-12T14:05:57Z</time>
      </trkpt>
      <trkpt lat="49.14934" lon="6.87269">
        <ele>325.54</ele>
        <time>2014-03-12T14:06:15Z</time>
      </trkpt>
      <trkpt lat="49.14921" lon="6.87246">
        <ele>322.18</ele>
        <time>2014-03-12T14:06:32Z</time>
      </trkpt>
      <trkpt lat="49.14918" lon="6.87226">
        <ele>322.18</ele>
        <time>2014-03-12T14:06:43Z</time>
      </trkpt>
      <trkpt lat="49.1493" lon="6.87196">
        <ele>320.74</ele>
        <time>2014-03-12T14:07:01Z</time>
      </trkpt>
      <trkpt lat="49.14943" lon="6.87178">
        <ele>318.81</ele>
        <time>2014-03-12T14:07:16Z</time>
      </trkpt>
      <trkpt lat="49.1496" lon="6.8716">
        <ele>318.81</ele>
        <time>2014-03-12T14:07:33Z</time>
      </trkpt>
      <trkpt lat="49.1498" lon="6.87142">
        <ele>318.81</ele>
        <time>2014-03-12T14:07:52Z</time>
      </trkpt>
      <trkpt lat="49.15" lon="6.87122">
        <ele>327.95</ele>
        <time>2014-03-12T14:08:07Z</time>
      </trkpt>
      <trkpt lat="49.15018" lon="6.87099">
        <ele>330.83</ele>
        <time>2014-03-12T14:08:26Z</time>
      </trkpt>
      <trkpt lat="49.15031" lon="6.87085">
        <ele>328.91</ele>
        <time>2014-03-12T14:08:41Z</time>
      </trkpt>
      <trkpt lat="49.15045" lon="6.87071">
        <ele>327.95</ele>
        <time>2014-03-12T14:08:55Z</time>
      </trkpt>
      <trkpt lat="49.1506" lon="6.87052">
        <ele>335.16</ele>
        <time>2014-03-12T14:09:13Z</time>
      </trkpt>
      <trkpt lat="49.1506" lon="6.87052">
        <ele>336.6</ele>
        <time>2014-03-12T14:09:15Z</time>
      </trkpt>
      <trkpt lat="49.15074" lon="6.87038">
        <ele>336.6</ele>
        <time>2014-03-12T14:09:29Z</time>
      </trkpt>
      <trkpt lat="49.15092" lon="6.87015">
        <ele>338.04</ele>
        <time>2014-03-12T14:09:47Z</time>
      </trkpt>
      <trkpt lat="49.15104" lon="6.87">
        <ele>335.16</ele>
        <time>2014-03-12T14:10:01Z</time>
      </trkpt>
      <trkpt lat="49.15109" lon="6.86982">
        <ele>336.6</ele>
        <time>2014-03-12T14:10:15Z</time>
      </trkpt>
      <trkpt lat="49.15105" lon="6.86971">
        <ele>339.48</ele>
        <time>2014-03-12T14:10:23Z</time>
      </trkpt>
      <trkpt lat="49.15097" lon="6.86951">
        <ele>341.41</ele>
        <time>2014-03-12T14:10:37Z</time>
      </trkpt>
      <trkpt lat="49.15096" lon="6.8695">
        <ele>341.41</ele>
        <time>2014-03-12T14:10:38Z</time>
      </trkpt>
      <trkpt lat="49.15089" lon="6.8693">
        <ele>342.85</ele>
        <time>2014-03-12T14:10:50Z</time>
      </trkpt>
      <trkpt lat="49.15086" lon="6.86924">
        <ele>342.85</ele>
        <time>2014-03-12T14:10:56Z</time>
      </trkpt>
      <trkpt lat="49.15082" lon="6.86916">
        <ele>343.33</ele>
        <time>2014-03-12T14:11:01Z</time>
      </trkpt>
      <trkpt lat="49.15071" lon="6.86894">
        <ele>343.33</ele>
        <time>2014-03-12T14:11:15Z</time>
      </trkpt>
      <trkpt lat="49.1507" lon="6.86892">
        <ele>343.33</ele>
        <time>2014-03-12T14:11:16Z</time>
      </trkpt>
      <trkpt lat="49.15062" lon="6.86877">
        <ele>342.85</ele>
        <time>2014-03-12T14:11:25Z</time>
      </trkpt>
      <trkpt lat="49.15055" lon="6.86863">
        <ele>344.77</ele>
        <time>2014-03-12T14:11:37Z</time>
      </trkpt>
      <trkpt lat="49.15051" lon="6.86858">
        <ele>345.25</ele>
        <time>2014-03-12T14:11:40Z</time>
      </trkpt>
      <trkpt lat="49.15043" lon="6.86844">
        <ele>344.77</ele>
        <time>2014-03-12T14:11:53Z</time>
      </trkpt>
      <trkpt lat="49.15013" lon="6.86802">
        <ele>341.41</ele>
        <time>2014-03-12T14:12:15Z</time>
      </trkpt>
      <trkpt lat="49.15008" lon="6.86798">
        <ele>340.44</ele>
        <time>2014-03-12T14:12:20Z</time>
      </trkpt>
      <trkpt lat="49.14998" lon="6.86793">
        <ele>338.04</ele>
        <time>2014-03-12T14:12:27Z</time>
      </trkpt>
      <trkpt lat="49.1499" lon="6.86787">
        <ele>339</ele>
        <time>2014-03-12T14:12:32Z</time>
      </trkpt>
      <trkpt lat="49.14972" lon="6.86765">
        <ele>338.52</ele>
        <time>2014-03-12T14:12:48Z</time>
      </trkpt>
      <trkpt lat="49.14963" lon="6.8675">
        <ele>339.48</ele>
        <time>2014-03-12T14:13:02Z</time>
      </trkpt>
      <trkpt lat="49.14959" lon="6.86742">
        <ele>339</ele>
        <time>2014-03-12T14:13:07Z</time>
      </trkpt>
      <trkpt lat="49.14946" lon="6.8672">
        <ele>341.41</ele>
        <time>2014-03-12T14:13:23Z</time>
      </trkpt>
      <trkpt lat="49.14944" lon="6.86718">
        <ele>341.89</ele>
        <time>2014-03-12T14:13:25Z</time>
      </trkpt>
      <trkpt lat="49.14941" lon="6.86712">
        <ele>342.37</ele>
        <time>2014-03-12T14:13:28Z</time>
      </trkpt>
      <trkpt lat="49.14933" lon="6.86704">
        <ele>342.37</ele>
        <time>2014-03-12T14:13:35Z</time>
      </trkpt>
      <trkpt lat="49.14923" lon="6.8669">
        <ele>344.29</ele>
        <time>2014-03-12T14:13:45Z</time>
      </trkpt>
      <trkpt lat="49.14921" lon="6.86683">
        <ele>343.81</ele>
        <time>2014-03-12T14:13:49Z</time>
      </trkpt>
      <trkpt lat="49.1492" lon="6.86681">
        <ele>343.81</ele>
        <time>2014-03-12T14:13:50Z</time>
      </trkpt>
      <trkpt lat="49.14919" lon="6.86679">
        <ele>343.81</ele>
        <time>2014-03-12T14:13:51Z</time>
      </trkpt>
      <trkpt lat="49.14917" lon="6.86677">
        <ele>344.29</ele>
        <time>2014-03-12T14:13:52Z</time>
      </trkpt>
      <trkpt lat="49.14916" lon="6.86675">
        <ele>344.29</ele>
        <time>2014-03-12T14:13:53Z</time>
      </trkpt>
      <trkpt lat="49.14915" lon="6.86672">
        <ele>343.81</ele>
        <time>2014-03-12T14:13:54Z</time>
      </trkpt>
      <trkpt lat="49.14914" lon="6.8667">
        <ele>343.81</ele>
        <time>2014-03-12T14:13:55Z</time>
      </trkpt>
      <trkpt lat="49.14914" lon="6.86668">
        <ele>343.81</ele>
        <time>2014-03-12T14:13:56Z</time>
      </trkpt>
      <trkpt lat="49.14913" lon="6.86666">
        <ele>343.81</ele>
        <time>2014-03-12T14:13:57Z</time>
      </trkpt>
      <trkpt lat="49.14912" lon="6.86664">
        <ele>343.33</ele>
        <time>2014-03-12T14:13:58Z</time>
      </trkpt>
      <trkpt lat="49.14899" lon="6.86641">
        <ele>341.89</ele>
        <time>2014-03-12T14:14:11Z</time>
      </trkpt>
      <trkpt lat="49.14892" lon="6.8663">
        <ele>340.44</ele>
        <time>2014-03-12T14:14:18Z</time>
      </trkpt>
      <trkpt lat="49.14891" lon="6.86628">
        <ele>340.44</ele>
        <time>2014-03-12T14:14:19Z</time>
      </trkpt>
      <trkpt lat="49.1488" lon="6.86604">
        <ele>339</ele>
        <time>2014-03-12T14:14:35Z</time>
      </trkpt>
      <trkpt lat="49.14872" lon="6.86583">
        <ele>339.48</ele>
        <time>2014-03-12T14:14:50Z</time>
      </trkpt>
      <trkpt lat="49.1487" lon="6.86563">
        <ele>339.96</ele>
        <time>2014-03-12T14:15:01Z</time>
      </trkpt>
      <trkpt lat="49.14873" lon="6.8653">
        <ele>340.44</ele>
        <time>2014-03-12T14:15:14Z</time>
      </trkpt>
      <trkpt lat="49.14873" lon="6.86513">
        <ele>339.48</ele>
        <time>2014-03-12T14:15:23Z</time>
      </trkpt>
      <trkpt lat="49.14882" lon="6.86494">
        <ele>340.92</ele>
        <time>2014-03-12T14:15:36Z</time>
      </trkpt>
      <trkpt lat="49.14884" lon="6.86491">
        <ele>340.92</ele>
        <time>2014-03-12T14:15:39Z</time>
      </trkpt>
      <trkpt lat="49.14886" lon="6.86477">
        <ele>341.89</ele>
        <time>2014-03-12T14:15:46Z</time>
      </trkpt>
      <trkpt lat="49.14887" lon="6.86472">
        <ele>341.41</ele>
        <time>2014-03-12T14:15:49Z</time>
      </trkpt>
      <trkpt lat="49.14891" lon="6.86457">
        <ele>339.96</ele>
        <time>2014-03-12T14:16:01Z</time>
      </trkpt>
      <trkpt lat="49.14894" lon="6.8645">
        <ele>340.44</ele>
        <time>2014-03-12T14:16:07Z</time>
      </trkpt>
      <trkpt lat="49.14896" lon="6.8643">
        <ele>341.41</ele>
        <time>2014-03-12T14:16:18Z</time>
      </trkpt>
      <trkpt lat="49.14902" lon="6.86424">
        <ele>338.52</ele>
        <time>2014-03-12T14:16:31Z</time>
      </trkpt>
      <trkpt lat="49.14916" lon="6.86414">
        <ele>330.83</ele>
        <time>2014-03-12T14:16:48Z</time>
      </trkpt>
      <trkpt lat="49.14923" lon="6.86419">
        <ele>330.35</ele>
        <time>2014-03-12T14:17:01Z</time>
      </trkpt>
      <trkpt lat="49.14934" lon="6.86423">
        <ele>331.79</ele>
        <time>2014-03-12T14:17:12Z</time>
      </trkpt>
      <trkpt lat="49.14937" lon="6.86435">
        <ele>333.23</ele>
        <time>2014-03-12T14:17:21Z</time>
      </trkpt>
      <trkpt lat="49.14949" lon="6.86449">
        <ele>332.75</ele>
        <time>2014-03-12T14:17:35Z</time>
      </trkpt>
      <trkpt lat="49.14954" lon="6.86466">
        <ele>333.23</ele>
        <time>2014-03-12T14:17:48Z</time>
      </trkpt>
      <trkpt lat="49.14954" lon="6.86468">
        <ele>333.23</ele>
        <time>2014-03-12T14:17:49Z</time>
      </trkpt>
      <trkpt lat="49.14954" lon="6.86473">
        <ele>332.75</ele>
        <time>2014-03-12T14:17:54Z</time>
      </trkpt>
      <trkpt lat="49.14953" lon="6.86487">
        <ele>332.75</ele>
        <time>2014-03-12T14:18:06Z</time>
      </trkpt>
      <trkpt lat="49.14951" lon="6.86498">
        <ele>336.12</ele>
        <time>2014-03-12T14:18:17Z</time>
      </trkpt>
      <trkpt lat="49.14948" lon="6.86514">
        <ele>339</ele>
        <time>2014-03-12T14:18:29Z</time>
      </trkpt>
      <trkpt lat="49.1495" lon="6.86542">
        <ele>339.48</ele>
        <time>2014-03-12T14:18:42Z</time>
      </trkpt>
      <trkpt lat="49.14948" lon="6.86568">
        <ele>338.52</ele>
        <time>2014-03-12T14:18:55Z</time>
      </trkpt>
      <trkpt lat="49.14948" lon="6.86574">
        <ele>339</ele>
        <time>2014-03-12T14:18:58Z</time>
      </trkpt>
      <trkpt lat="49.14943" lon="6.86595">
        <ele>339</ele>
        <time>2014-03-12T14:19:12Z</time>
      </trkpt>
      <trkpt lat="49.14938" lon="6.8662">
        <ele>336.12</ele>
        <time>2014-03-12T14:19:25Z</time>
      </trkpt>
      <trkpt lat="49.14934" lon="6.8663">
        <ele>336.12</ele>
        <time>2014-03-12T14:19:31Z</time>
      </trkpt>
      <trkpt lat="49.14931" lon="6.86654">
        <ele>338.04</ele>
        <time>2014-03-12T14:19:44Z</time>
      </trkpt>
      <trkpt lat="49.14933" lon="6.86674">
        <ele>339.48</ele>
        <time>2014-03-12T14:19:55Z</time>
      </trkpt>
      <trkpt lat="49.14934" lon="6.86679">
        <ele>339.48</ele>
        <time>2014-03-12T14:19:57Z</time>
      </trkpt>
      <trkpt lat="49.14942" lon="6.86694">
        <ele>341.41</ele>
        <time>2014-03-12T14:20:08Z</time>
      </trkpt>
      <trkpt lat="49.14957" lon="6.86727">
        <ele>341.89</ele>
        <time>2014-03-12T14:20:27Z</time>
      </trkpt>
      <trkpt lat="49.14971" lon="6.86776">
        <ele>340.44</ele>
        <time>2014-03-12T14:20:48Z</time>
      </trkpt>
      <trkpt lat="49.14974" lon="6.86778">
        <ele>341.41</ele>
        <time>2014-03-12T14:20:51Z</time>
      </trkpt>
      <trkpt lat="49.14996" lon="6.86795">
        <ele>339.96</ele>
        <time>2014-03-12T14:21:10Z</time>
      </trkpt>
      <trkpt lat="49.15015" lon="6.86804">
        <ele>337.56</ele>
        <time>2014-03-12T14:21:26Z</time>
      </trkpt>
      <trkpt lat="49.15027" lon="6.86818">
        <ele>336.12</ele>
        <time>2014-03-12T14:21:42Z</time>
      </trkpt>
      <trkpt lat="49.15042" lon="6.86847">
        <ele>336.12</ele>
        <time>2014-03-12T14:22:02Z</time>
      </trkpt>
      <trkpt lat="49.15061" lon="6.8688">
        <ele>336.6</ele>
        <time>2014-03-12T14:22:17Z</time>
      </trkpt>
      <trkpt lat="49.15075" lon="6.86896">
        <ele>338.52</ele>
        <time>2014-03-12T14:22:32Z</time>
      </trkpt>
      <trkpt lat="49.15086" lon="6.86925">
        <ele>337.56</ele>
        <time>2014-03-12T14:22:50Z</time>
      </trkpt>
      <trkpt lat="49.15099" lon="6.86958">
        <ele>338.04</ele>
        <time>2014-03-12T14:23:08Z</time>
      </trkpt>
      <trkpt lat="49.15112" lon="6.86978">
        <ele>339.48</ele>
        <time>2014-03-12T14:23:23Z</time>
      </trkpt>
      <trkpt lat="49.15143" lon="6.86958">
        <ele>334.2</ele>
        <time>2014-03-12T14:23:44Z</time>
      </trkpt>
      <trkpt lat="49.15145" lon="6.86957">
        <ele>334.2</ele>
        <time>2014-03-12T14:23:45Z</time>
      </trkpt>
      <trkpt lat="49.15174" lon="6.86936">
        <ele>333.23</ele>
        <time>2014-03-12T14:24:05Z</time>
      </trkpt>
      <trkpt lat="49.15189" lon="6.86912">
        <ele>331.79</ele>
        <time>2014-03-12T14:24:20Z</time>
      </trkpt>
      <trkpt lat="49.15208" lon="6.8689">
        <ele>330.83</ele>
        <time>2014-03-12T14:24:36Z</time>
      </trkpt>
      <trkpt lat="49.15227" lon="6.86859">
        <ele>331.31</ele>
        <time>2014-03-12T14:24:55Z</time>
      </trkpt>
      <trkpt lat="49.15243" lon="6.86833">
        <ele>330.35</ele>
        <time>2014-03-12T14:25:13Z</time>
      </trkpt>
      <trkpt lat="49.15245" lon="6.86831">
        <ele>331.31</ele>
        <time>2014-03-12T14:25:15Z</time>
      </trkpt>
      <trkpt lat="49.15251" lon="6.86822">
        <ele>330.83</ele>
        <time>2014-03-12T14:25:21Z</time>
      </trkpt>
      <trkpt lat="49.15257" lon="6.86807">
        <ele>330.83</ele>
        <time>2014-03-12T14:25:29Z</time>
      </trkpt>
      <trkpt lat="49.15262" lon="6.86797">
        <ele>330.83</ele>
        <time>2014-03-12T14:25:34Z</time>
      </trkpt>
      <trkpt lat="49.15288" lon="6.8677">
        <ele>334.2</ele>
        <time>2014-03-12T14:25:51Z</time>
      </trkpt>
      <trkpt lat="49.15298" lon="6.86746">
        <ele>333.23</ele>
        <time>2014-03-12T14:26:08Z</time>
      </trkpt>
      <trkpt lat="49.1531" lon="6.86707">
        <ele>327.47</ele>
        <time>2014-03-12T14:26:28Z</time>
      </trkpt>
      <trkpt lat="49.15328" lon="6.86673">
        <ele>323.14</ele>
        <time>2014-03-12T14:26:44Z</time>
      </trkpt>
      <trkpt lat="49.15343" lon="6.86647">
        <ele>319.3</ele>
        <time>2014-03-12T14:27:00Z</time>
      </trkpt>
      <trkpt lat="49.15354" lon="6.86619">
        <ele>320.26</ele>
        <time>2014-03-12T14:27:18Z</time>
      </trkpt>
      <trkpt lat="49.15367" lon="6.86589">
        <ele>320.74</ele>
        <time>2014-03-12T14:27:36Z</time>
      </trkpt>
      <trkpt lat="49.15386" lon="6.86549">
        <ele>318.33</ele>
        <time>2014-03-12T14:27:58Z</time>
      </trkpt>
      <trkpt lat="49.15393" lon="6.86527">
        <ele>317.85</ele>
        <time>2014-03-12T14:28:13Z</time>
      </trkpt>
      <trkpt lat="49.15397" lon="6.86509">
        <ele>318.81</ele>
        <time>2014-03-12T14:28:26Z</time>
      </trkpt>
      <trkpt lat="49.15401" lon="6.86479">
        <ele>319.3</ele>
        <time>2014-03-12T14:28:38Z</time>
      </trkpt>
      <trkpt lat="49.15404" lon="6.8644">
        <ele>318.33</ele>
        <time>2014-03-12T14:28:56Z</time>
      </trkpt>
      <trkpt lat="49.15407" lon="6.86388">
        <ele>315.45</ele>
        <time>2014-03-12T14:29:20Z</time>
      </trkpt>
      <trkpt lat="49.15403" lon="6.8634">
        <ele>313.05</ele>
        <time>2014-03-12T14:29:41Z</time>
      </trkpt>
      <trkpt lat="49.15396" lon="6.86303">
        <ele>313.53</ele>
        <time>2014-03-12T14:29:59Z</time>
      </trkpt>
      <trkpt lat="49.15393" lon="6.86297">
        <ele>313.53</ele>
        <time>2014-03-12T14:30:02Z</time>
      </trkpt>
      <trkpt lat="49.15388" lon="6.86292">
        <ele>313.05</ele>
        <time>2014-03-12T14:30:07Z</time>
      </trkpt>
      <trkpt lat="49.15386" lon="6.86292">
        <ele>313.05</ele>
        <time>2014-03-12T14:30:08Z</time>
      </trkpt>
      <trkpt lat="49.15384" lon="6.86292">
        <ele>312.57</ele>
        <time>2014-03-12T14:30:09Z</time>
      </trkpt>
      <trkpt lat="49.15358" lon="6.86291">
        <ele>310.64</ele>
        <time>2014-03-12T14:30:27Z</time>
      </trkpt>
      <trkpt lat="49.1534" lon="6.86278">
        <ele>306.8</ele>
        <time>2014-03-12T14:30:43Z</time>
      </trkpt>
      <trkpt lat="49.15327" lon="6.86257">
        <ele>307.28</ele>
        <time>2014-03-12T14:30:56Z</time>
      </trkpt>
      <trkpt lat="49.15314" lon="6.86221">
        <ele>306.32</ele>
        <time>2014-03-12T14:31:14Z</time>
      </trkpt>
      <trkpt lat="49.15301" lon="6.86198">
        <ele>305.84</ele>
        <time>2014-03-12T14:31:28Z</time>
      </trkpt>
      <trkpt lat="49.15291" lon="6.86174">
        <ele>304.88</ele>
        <time>2014-03-12T14:31:43Z</time>
      </trkpt>
      <trkpt lat="49.15287" lon="6.8616">
        <ele>304.88</ele>
        <time>2014-03-12T14:31:53Z</time>
      </trkpt>
      <trkpt lat="49.15283" lon="6.86149">
        <ele>302.95</ele>
        <time>2014-03-12T14:32:04Z</time>
      </trkpt>
      <trkpt lat="49.15272" lon="6.86124">
        <ele>297.18</ele>
        <time>2014-03-12T14:32:19Z</time>
      </trkpt>
      <trkpt lat="49.15256" lon="6.86101">
        <ele>296.7</ele>
        <time>2014-03-12T14:32:30Z</time>
      </trkpt>
      <trkpt lat="49.15253" lon="6.86096">
        <ele>297.67</ele>
        <time>2014-03-12T14:32:33Z</time>
      </trkpt>
      <trkpt lat="49.15252" lon="6.86094">
        <ele>297.67</ele>
        <time>2014-03-12T14:32:34Z</time>
      </trkpt>
      <trkpt lat="49.15244" lon="6.86076">
        <ele>298.63</ele>
        <time>2014-03-12T14:32:45Z</time>
      </trkpt>
      <trkpt lat="49.1524" lon="6.86069">
        <ele>298.15</ele>
        <time>2014-03-12T14:32:49Z</time>
      </trkpt>
      <trkpt lat="49.15231" lon="6.86035">
        <ele>295.74</ele>
        <time>2014-03-12T14:33:09Z</time>
      </trkpt>
      <trkpt lat="49.15215" lon="6.85998">
        <ele>295.74</ele>
        <time>2014-03-12T14:33:30Z</time>
      </trkpt>
      <trkpt lat="49.15197" lon="6.8597">
        <ele>299.59</ele>
        <time>2014-03-12T14:33:45Z</time>
      </trkpt>
      <trkpt lat="49.15182" lon="6.85938">
        <ele>303.91</ele>
        <time>2014-03-12T14:33:59Z</time>
      </trkpt>
      <trkpt lat="49.15171" lon="6.85927">
        <ele>302.95</ele>
        <time>2014-03-12T14:34:11Z</time>
      </trkpt>
      <trkpt lat="49.15156" lon="6.85895">
        <ele>297.18</ele>
        <time>2014-03-12T14:34:25Z</time>
      </trkpt>
      <trkpt lat="49.15153" lon="6.85866">
        <ele>289.97</ele>
        <time>2014-03-12T14:34:38Z</time>
      </trkpt>
      <trkpt lat="49.15148" lon="6.85853">
        <ele>285.17</ele>
        <time>2014-03-12T14:34:50Z</time>
      </trkpt>
      <trkpt lat="49.15144" lon="6.85849">
        <ele>283.25</ele>
        <time>2014-03-12T14:34:55Z</time>
      </trkpt>
      <trkpt lat="49.15142" lon="6.85849">
        <ele>282.77</ele>
        <time>2014-03-12T14:34:56Z</time>
      </trkpt>
      <trkpt lat="49.1514" lon="6.85848">
        <ele>282.77</ele>
        <time>2014-03-12T14:34:57Z</time>
      </trkpt>
      <trkpt lat="49.15116" lon="6.85829">
        <ele>271.23</ele>
        <time>2014-03-12T14:35:17Z</time>
      </trkpt>
      <trkpt lat="49.15096" lon="6.85812">
        <ele>264.02</ele>
        <time>2014-03-12T14:35:35Z</time>
      </trkpt>
      <trkpt lat="49.15082" lon="6.85791">
        <ele>275.07</ele>
        <time>2014-03-12T14:35:51Z</time>
      </trkpt>
      <trkpt lat="49.15075" lon="6.85795">
        <ele>268.83</ele>
        <time>2014-03-12T14:36:04Z</time>
      </trkpt>
      <trkpt lat="49.1507" lon="6.85799">
        <ele>266.9</ele>
        <time>2014-03-12T14:36:08Z</time>
      </trkpt>
      <trkpt lat="49.15069" lon="6.85798">
        <ele>265.94</ele>
        <time>2014-03-12T14:36:09Z</time>
      </trkpt>
      <trkpt lat="49.15048" lon="6.85764">
        <ele>258.25</ele>
        <time>2014-03-12T14:36:31Z</time>
      </trkpt>
      <trkpt lat="49.15024" lon="6.8575">
        <ele>252.96</ele>
        <time>2014-03-12T14:36:53Z</time>
      </trkpt>
      <trkpt lat="49.15002" lon="6.85749">
        <ele>247.68</ele>
        <time>2014-03-12T14:37:13Z</time>
      </trkpt>
      <trkpt lat="49.14974" lon="6.85738">
        <ele>245.27</ele>
        <time>2014-03-12T14:37:33Z</time>
      </trkpt>
      <trkpt lat="49.14972" lon="6.85738">
        <ele>242.39</ele>
        <time>2014-03-12T14:37:51Z</time>
      </trkpt>
      <trkpt lat="49.14978" lon="6.85744">
        <ele>241.43</ele>
        <time>2014-03-12T14:38:07Z</time>
      </trkpt>
      <trkpt lat="49.15" lon="6.85754">
        <ele>239.99</ele>
        <time>2014-03-12T14:38:30Z</time>
      </trkpt>
      <trkpt lat="49.15038" lon="6.85772">
        <ele>252.48</ele>
        <time>2014-03-12T14:38:56Z</time>
      </trkpt>
      <trkpt lat="49.15055" lon="6.85784">
        <ele>259.69</ele>
        <time>2014-03-12T14:39:20Z</time>
      </trkpt>
      <trkpt lat="49.15061" lon="6.85785">
        <ele>268.35</ele>
        <time>2014-03-12T14:39:36Z</time>
      </trkpt>
      <trkpt lat="49.15078" lon="6.85797">
        <ele>282.77</ele>
        <time>2014-03-12T14:39:58Z</time>
      </trkpt>
      <trkpt lat="49.15085" lon="6.85808">
        <ele>292.86</ele>
        <time>2014-03-12T14:40:15Z</time>
      </trkpt>
      <trkpt lat="49.15098" lon="6.8583">
        <ele>291.9</ele>
        <time>2014-03-12T14:40:30Z</time>
      </trkpt>
      <trkpt lat="49.15106" lon="6.85839">
        <ele>293.82</ele>
        <time>2014-03-12T14:40:45Z</time>
      </trkpt>
      <trkpt lat="49.15116" lon="6.85849">
        <ele>294.3</ele>
        <time>2014-03-12T14:40:59Z</time>
      </trkpt>
      <trkpt lat="49.15123" lon="6.8585">
        <ele>295.74</ele>
        <time>2014-03-12T14:41:14Z</time>
      </trkpt>
      <trkpt lat="49.15133" lon="6.85855">
        <ele>297.67</ele>
        <time>2014-03-12T14:41:29Z</time>
      </trkpt>
      <trkpt lat="49.15149" lon="6.85873">
        <ele>299.59</ele>
        <time>2014-03-12T14:41:49Z</time>
      </trkpt>
      <trkpt lat="49.15167" lon="6.85897">
        <ele>300.55</ele>
        <time>2014-03-12T14:42:13Z</time>
      </trkpt>
      <trkpt lat="49.1519" lon="6.85898">
        <ele>297.67</ele>
        <time>2014-03-12T14:42:33Z</time>
      </trkpt>
      <trkpt lat="49.15208" lon="6.85889">
        <ele>300.07</ele>
        <time>2014-03-12T14:42:50Z</time>
      </trkpt>
      <trkpt lat="49.15224" lon="6.8589">
        <ele>302.95</ele>
        <time>2014-03-12T14:43:03Z</time>
      </trkpt>
      <trkpt lat="49.15228" lon="6.85892">
        <ele>303.91</ele>
        <time>2014-03-12T14:43:06Z</time>
      </trkpt>
      <trkpt lat="49.15239" lon="6.85889">
        <ele>310.16</ele>
        <time>2014-03-12T14:43:21Z</time>
      </trkpt>
      <trkpt lat="49.15239" lon="6.85888">
        <ele>310.16</ele>
        <time>2014-03-12T14:43:22Z</time>
      </trkpt>
      <trkpt lat="49.15251" lon="6.85856">
        <ele>312.57</ele>
        <time>2014-03-12T14:43:43Z</time>
      </trkpt>
      <trkpt lat="49.15268" lon="6.85837">
        <ele>313.05</ele>
        <time>2014-03-12T14:44:04Z</time>
      </trkpt>
      <trkpt lat="49.1529" lon="6.85826">
        <ele>312.09</ele>
        <time>2014-03-12T14:44:27Z</time>
      </trkpt>
      <trkpt lat="49.15309" lon="6.85819">
        <ele>308.24</ele>
        <time>2014-03-12T14:44:46Z</time>
      </trkpt>
      <trkpt lat="49.15331" lon="6.85807">
        <ele>301.99</ele>
        <time>2014-03-12T14:45:08Z</time>
      </trkpt>
      <trkpt lat="49.15349" lon="6.85814">
        <ele>296.22</ele>
        <time>2014-03-12T14:45:26Z</time>
      </trkpt>
      <trkpt lat="49.15362" lon="6.85818">
        <ele>290.94</ele>
        <time>2014-03-12T14:45:42Z</time>
      </trkpt>
      <trkpt lat="49.15384" lon="6.85819">
        <ele>293.82</ele>
        <time>2014-03-12T14:45:57Z</time>
      </trkpt>
      <trkpt lat="49.15391" lon="6.85823">
        <ele>292.38</ele>
        <time>2014-03-12T14:46:04Z</time>
      </trkpt>
      <trkpt lat="49.15412" lon="6.85843">
        <ele>292.38</ele>
        <time>2014-03-12T14:46:20Z</time>
      </trkpt>
      <trkpt lat="49.15429" lon="6.85857">
        <ele>291.9</ele>
        <time>2014-03-12T14:46:35Z</time>
      </trkpt>
      <trkpt lat="49.15447" lon="6.85865">
        <ele>289.01</ele>
        <time>2014-03-12T14:46:50Z</time>
      </trkpt>
      <trkpt lat="49.15465" lon="6.85871">
        <ele>284.69</ele>
        <time>2014-03-12T14:47:04Z</time>
      </trkpt>
      <trkpt lat="49.15467" lon="6.85872">
        <ele>284.21</ele>
        <time>2014-03-12T14:47:07Z</time>
      </trkpt>
      <trkpt lat="49.15478" lon="6.85893">
        <ele>282.28</ele>
        <time>2014-03-12T14:47:23Z</time>
      </trkpt>
      <trkpt lat="49.15481" lon="6.85899">
        <ele>279.4</ele>
        <time>2014-03-12T14:47:44Z</time>
      </trkpt>
      <trkpt lat="49.15484" lon="6.85899">
        <ele>278.44</ele>
        <time>2014-03-12T14:47:58Z</time>
      </trkpt>
      <trkpt lat="49.15491" lon="6.85924">
        <ele>280.36</ele>
        <time>2014-03-12T14:48:16Z</time>
      </trkpt>
      <trkpt lat="49.155" lon="6.85932">
        <ele>288.53</ele>
        <time>2014-03-12T14:48:31Z</time>
      </trkpt>
      <trkpt lat="49.15504" lon="6.85937">
        <ele>288.53</ele>
        <time>2014-03-12T14:48:40Z</time>
      </trkpt>
      <trkpt lat="49.15516" lon="6.85954">
        <ele>287.57</ele>
        <time>2014-03-12T14:48:55Z</time>
      </trkpt>
      <trkpt lat="49.15541" lon="6.85976">
        <ele>287.09</ele>
        <time>2014-03-12T14:49:14Z</time>
      </trkpt>
      <trkpt lat="49.15562" lon="6.85986">
        <ele>281.32</ele>
        <time>2014-03-12T14:49:32Z</time>
      </trkpt>
      <trkpt lat="49.15576" lon="6.85997">
        <ele>278.44</ele>
        <time>2014-03-12T14:49:46Z</time>
      </trkpt>
      <trkpt lat="49.15577" lon="6.85975">
        <ele>275.07</ele>
        <time>2014-03-12T14:50:02Z</time>
      </trkpt>
      <trkpt lat="49.15571" lon="6.85953">
        <ele>272.19</ele>
        <time>2014-03-12T14:50:19Z</time>
      </trkpt>
      <trkpt lat="49.15572" lon="6.85949">
        <ele>275.07</ele>
        <time>2014-03-12T14:51:04Z</time>
      </trkpt>
      <trkpt lat="49.15569" lon="6.85941">
        <ele>275.07</ele>
        <time>2014-03-12T14:51:12Z</time>
      </trkpt>
      <trkpt lat="49.15561" lon="6.85912">
        <ele>273.15</ele>
        <time>2014-03-12T14:51:29Z</time>
      </trkpt>
      <trkpt lat="49.15553" lon="6.85897">
        <ele>270.75</ele>
        <time>2014-03-12T14:51:43Z</time>
      </trkpt>
      <trkpt lat="49.15543" lon="6.85868">
        <ele>266.42</ele>
        <time>2014-03-12T14:52:01Z</time>
      </trkpt>
      <trkpt lat="49.15542" lon="6.85837">
        <ele>259.69</ele>
        <time>2014-03-12T14:52:20Z</time>
      </trkpt>
      <trkpt lat="49.15543" lon="6.85836">
        <ele>259.21</ele>
        <time>2014-03-12T14:52:21Z</time>
      </trkpt>
      <trkpt lat="49.15562" lon="6.8583">
        <ele>254.41</ele>
        <time>2014-03-12T14:52:37Z</time>
      </trkpt>
      <trkpt lat="49.15575" lon="6.85828">
        <ele>252.48</ele>
        <time>2014-03-12T14:52:46Z</time>
      </trkpt>
      <trkpt lat="49.15593" lon="6.85818">
        <ele>252.96</ele>
        <time>2014-03-12T14:53:03Z</time>
      </trkpt>
      <trkpt lat="49.1561" lon="6.85817">
        <ele>250.08</ele>
        <time>2014-03-12T14:53:18Z</time>
      </trkpt>
      <trkpt lat="49.15627" lon="6.85823">
        <ele>245.27</ele>
        <time>2014-03-12T14:53:32Z</time>
      </trkpt>
      <trkpt lat="49.15644" lon="6.85836">
        <ele>241.43</ele>
        <time>2014-03-12T14:53:49Z</time>
      </trkpt>
      <trkpt lat="49.15672" lon="6.85845">
        <ele>238.54</ele>
        <time>2014-03-12T14:54:09Z</time>
      </trkpt>
      <trkpt lat="49.15679" lon="6.85847">
        <ele>237.58</ele>
        <time>2014-03-12T14:54:13Z</time>
      </trkpt>
      <trkpt lat="49.15704" lon="6.85853">
        <ele>235.18</ele>
        <time>2014-03-12T14:54:31Z</time>
      </trkpt>
      <trkpt lat="49.15718" lon="6.85872">
        <ele>229.41</ele>
        <time>2014-03-12T14:54:52Z</time>
      </trkpt>
      <trkpt lat="49.15749" lon="6.8588">
        <ele>224.12</ele>
        <time>2014-03-12T14:55:12Z</time>
      </trkpt>
      <trkpt lat="49.15767" lon="6.85863">
        <ele>224.12</ele>
        <time>2014-03-12T14:55:26Z</time>
      </trkpt>
      <trkpt lat="49.15796" lon="6.85828">
        <ele>226.05</ele>
        <time>2014-03-12T14:55:46Z</time>
      </trkpt>
      <trkpt lat="49.15815" lon="6.85797">
        <ele>225.57</ele>
        <time>2014-03-12T14:56:02Z</time>
      </trkpt>
      <trkpt lat="49.15819" lon="6.85764">
        <ele>220.76</ele>
        <time>2014-03-12T14:56:18Z</time>
      </trkpt>
      <trkpt lat="49.15834" lon="6.8574">
        <ele>217.4</ele>
        <time>2014-03-12T14:56:35Z</time>
      </trkpt>
      <trkpt lat="49.15841" lon="6.85709">
        <ele>214.99</ele>
        <time>2014-03-12T14:56:52Z</time>
      </trkpt>
      <trkpt lat="49.15837" lon="6.85694">
        <ele>213.55</ele>
        <time>2014-03-12T14:57:04Z</time>
      </trkpt>
      <trkpt lat="49.1584" lon="6.8569">
        <ele>212.11</ele>
        <time>2014-03-12T14:57:09Z</time>
      </trkpt>
      <trkpt lat="49.15846" lon="6.85689">
        <ele>208.26</ele>
        <time>2014-03-12T14:57:17Z</time>
      </trkpt>
      <trkpt lat="49.15858" lon="6.85687">
        <ele>206.82</ele>
        <time>2014-03-12T14:57:27Z</time>
      </trkpt>
      <trkpt lat="49.15878" lon="6.85703">
        <ele>203.46</ele>
        <time>2014-03-12T14:57:44Z</time>
      </trkpt>
      <trkpt lat="49.15897" lon="6.85719">
        <ele>201.53</ele>
        <time>2014-03-12T14:58:03Z</time>
      </trkpt>
      <trkpt lat="49.15913" lon="6.85733">
        <ele>202.98</ele>
        <time>2014-03-12T14:58:19Z</time>
      </trkpt>
      <trkpt lat="49.15923" lon="6.85754">
        <ele>204.42</ele>
        <time>2014-03-12T14:58:34Z</time>
      </trkpt>
      <trkpt lat="49.15939" lon="6.85754">
        <ele>199.61</ele>
        <time>2014-03-12T14:58:47Z</time>
      </trkpt>
      <trkpt lat="49.15944" lon="6.85752">
        <ele>199.13</ele>
        <time>2014-03-12T14:58:50Z</time>
      </trkpt>
      <trkpt lat="49.15984" lon="6.85745">
        <ele>199.61</ele>
        <time>2014-03-12T14:59:10Z</time>
      </trkpt>
      <trkpt lat="49.16015" lon="6.85735">
        <ele>199.13</ele>
        <time>2014-03-12T14:59:28Z</time>
      </trkpt>
      <trkpt lat="49.16016" lon="6.85736">
        <ele>199.13</ele>
        <time>2014-03-12T14:59:29Z</time>
      </trkpt>
      <trkpt lat="49.16023" lon="6.85743">
        <ele>198.65</ele>
        <time>2014-03-12T14:59:36Z</time>
      </trkpt>
      <trkpt lat="49.16051" lon="6.85741">
        <ele>199.13</ele>
        <time>2014-03-12T14:59:53Z</time>
      </trkpt>
      <trkpt lat="49.16061" lon="6.85745">
        <ele>199.61</ele>
        <time>2014-03-12T15:00:09Z</time>
      </trkpt>
      <trkpt lat="49.16075" lon="6.85753">
        <ele>200.09</ele>
        <time>2014-03-12T15:00:26Z</time>
      </trkpt>
      <trkpt lat="49.16076" lon="6.85753">
        <ele>200.09</ele>
        <time>2014-03-12T15:00:27Z</time>
      </trkpt>
      <trkpt lat="49.161" lon="6.85767">
        <ele>200.09</ele>
        <time>2014-03-12T15:00:46Z</time>
      </trkpt>
      <trkpt lat="49.16121" lon="6.85783">
        <ele>198.65</ele>
        <time>2014-03-12T15:01:04Z</time>
      </trkpt>
      <trkpt lat="49.16137" lon="6.858">
        <ele>200.57</ele>
        <time>2014-03-12T15:01:20Z</time>
      </trkpt>
      <trkpt lat="49.16145" lon="6.85809">
        <ele>201.05</ele>
        <time>2014-03-12T15:01:29Z</time>
      </trkpt>
      <trkpt lat="49.16159" lon="6.85826">
        <ele>202.98</ele>
        <time>2014-03-12T15:01:44Z</time>
      </trkpt>
      <trkpt lat="49.16173" lon="6.85848">
        <ele>204.42</ele>
        <time>2014-03-12T15:02:00Z</time>
      </trkpt>
      <trkpt lat="49.16192" lon="6.85877">
        <ele>205.86</ele>
        <time>2014-03-12T15:02:20Z</time>
      </trkpt>
      <trkpt lat="49.16209" lon="6.85906">
        <ele>207.3</ele>
        <time>2014-03-12T15:02:40Z</time>
      </trkpt>
      <trkpt lat="49.16231" lon="6.85917">
        <ele>206.34</ele>
        <time>2014-03-12T15:03:00Z</time>
      </trkpt>
      <trkpt lat="49.16233" lon="6.85917">
        <ele>206.82</ele>
        <time>2014-03-12T15:03:01Z</time>
      </trkpt>
      <trkpt lat="49.16258" lon="6.85906">
        <ele>215.95</ele>
        <time>2014-03-12T15:03:15Z</time>
      </trkpt>
      <trkpt lat="49.16278" lon="6.85895">
        <ele>217.4</ele>
        <time>2014-03-12T15:03:33Z</time>
      </trkpt>
      <trkpt lat="49.16287" lon="6.85896">
        <ele>214.03</ele>
        <time>2014-03-12T15:03:42Z</time>
      </trkpt>
      <trkpt lat="49.16296" lon="6.85893">
        <ele>213.07</ele>
        <time>2014-03-12T15:03:47Z</time>
      </trkpt>
      <trkpt lat="49.16325" lon="6.85893">
        <ele>214.51</ele>
        <time>2014-03-12T15:04:01Z</time>
      </trkpt>
      <trkpt lat="49.16349" lon="6.85884">
        <ele>214.51</ele>
        <time>2014-03-12T15:04:16Z</time>
      </trkpt>
      <trkpt lat="49.16351" lon="6.85854">
        <ele>211.63</ele>
        <time>2014-03-12T15:04:31Z</time>
      </trkpt>
      <trkpt lat="49.16341" lon="6.85831">
        <ele>210.19</ele>
        <time>2014-03-12T15:04:44Z</time>
      </trkpt>
      <trkpt lat="49.16328" lon="6.85804">
        <ele>205.86</ele>
        <time>2014-03-12T15:05:00Z</time>
      </trkpt>
      <trkpt lat="49.16315" lon="6.85776">
        <ele>202.98</ele>
        <time>2014-03-12T15:05:20Z</time>
      </trkpt>
      <trkpt lat="49.16302" lon="6.85747">
        <ele>202.98</ele>
        <time>2014-03-12T15:05:39Z</time>
      </trkpt>
      <trkpt lat="49.16286" lon="6.8571">
        <ele>202.98</ele>
        <time>2014-03-12T15:06:00Z</time>
      </trkpt>
      <trkpt lat="49.16285" lon="6.85706">
        <ele>202.98</ele>
        <time>2014-03-12T15:06:02Z</time>
      </trkpt>
      <trkpt lat="49.16284" lon="6.85704">
        <ele>202.98</ele>
        <time>2014-03-12T15:06:03Z</time>
      </trkpt>
      <trkpt lat="49.16277" lon="6.85691">
        <ele>202.49</ele>
        <time>2014-03-12T15:06:09Z</time>
      </trkpt>
      <trkpt lat="49.16276" lon="6.85689">
        <ele>202.01</ele>
        <time>2014-03-12T15:06:10Z</time>
      </trkpt>
      <trkpt lat="49.1627" lon="6.85678">
        <ele>201.53</ele>
        <time>2014-03-12T15:06:17Z</time>
      </trkpt>
      <trkpt lat="49.1627" lon="6.85676">
        <ele>201.53</ele>
        <time>2014-03-12T15:06:18Z</time>
      </trkpt>
      <trkpt lat="49.16267" lon="6.85642">
        <ele>200.57</ele>
        <time>2014-03-12T15:06:32Z</time>
      </trkpt>
      <trkpt lat="49.16253" lon="6.8562">
        <ele>197.69</ele>
        <time>2014-03-12T15:06:49Z</time>
      </trkpt>
      <trkpt lat="49.16249" lon="6.8562">
        <ele>194.8</ele>
        <time>2014-03-12T15:07:22Z</time>
      </trkpt>
      <trkpt lat="49.16243" lon="6.85606">
        <ele>198.65</ele>
        <time>2014-03-12T15:07:52Z</time>
      </trkpt>
      <trkpt lat="49.16229" lon="6.85587">
        <ele>198.17</ele>
        <time>2014-03-12T15:08:09Z</time>
      </trkpt>
      <trkpt lat="49.16211" lon="6.85561">
        <ele>196.73</ele>
        <time>2014-03-12T15:08:28Z</time>
      </trkpt>
      <trkpt lat="49.16192" lon="6.85527">
        <ele>194.32</ele>
        <time>2014-03-12T15:08:45Z</time>
      </trkpt>
      <trkpt lat="49.16174" lon="6.85499">
        <ele>191.44</ele>
        <time>2014-03-12T15:09:05Z</time>
      </trkpt>
      <trkpt lat="49.16153" lon="6.8547">
        <ele>194.8</ele>
        <time>2014-03-12T15:09:22Z</time>
      </trkpt>
      <trkpt lat="49.16138" lon="6.85443">
        <ele>198.65</ele>
        <time>2014-03-12T15:09:38Z</time>
      </trkpt>
      <trkpt lat="49.16116" lon="6.85411">
        <ele>202.01</ele>
        <time>2014-03-12T15:10:00Z</time>
      </trkpt>
      <trkpt lat="49.16098" lon="6.85386">
        <ele>201.53</ele>
        <time>2014-03-12T15:10:19Z</time>
      </trkpt>
      <trkpt lat="49.16084" lon="6.8536">
        <ele>200.09</ele>
        <time>2014-03-12T15:10:35Z</time>
      </trkpt>
      <trkpt lat="49.16067" lon="6.85335">
        <ele>198.17</ele>
        <time>2014-03-12T15:10:53Z</time>
      </trkpt>
      <trkpt lat="49.16057" lon="6.85306">
        <ele>200.09</ele>
        <time>2014-03-12T15:11:12Z</time>
      </trkpt>
      <trkpt lat="49.16057" lon="6.85305">
        <ele>200.57</ele>
        <time>2014-03-12T15:11:13Z</time>
      </trkpt>
      <trkpt lat="49.16058" lon="6.85303">
        <ele>200.57</ele>
        <time>2014-03-12T15:11:14Z</time>
      </trkpt>
      <trkpt lat="49.16059" lon="6.85301">
        <ele>200.57</ele>
        <time>2014-03-12T15:11:15Z</time>
      </trkpt>
      <trkpt lat="49.16059" lon="6.85299">
        <ele>201.05</ele>
        <time>2014-03-12T15:11:16Z</time>
      </trkpt>
      <trkpt lat="49.1606" lon="6.85297">
        <ele>201.53</ele>
        <time>2014-03-12T15:11:17Z</time>
      </trkpt>
      <trkpt lat="49.16061" lon="6.85295">
        <ele>201.53</ele>
        <time>2014-03-12T15:11:18Z</time>
      </trkpt>
      <trkpt lat="49.16065" lon="6.85289">
        <ele>202.49</ele>
        <time>2014-03-12T15:11:22Z</time>
      </trkpt>
      <trkpt lat="49.16066" lon="6.85288">
        <ele>202.49</ele>
        <time>2014-03-12T15:11:23Z</time>
      </trkpt>
      <trkpt lat="49.16067" lon="6.85288">
        <ele>202.98</ele>
        <time>2014-03-12T15:11:24Z</time>
      </trkpt>
      <trkpt lat="49.16069" lon="6.85288">
        <ele>202.98</ele>
        <time>2014-03-12T15:11:25Z</time>
      </trkpt>
      <trkpt lat="49.1607" lon="6.85288">
        <ele>203.46</ele>
        <time>2014-03-12T15:11:26Z</time>
      </trkpt>
      <trkpt lat="49.16092" lon="6.85282">
        <ele>204.42</ele>
        <time>2014-03-12T15:11:45Z</time>
      </trkpt>
      <trkpt lat="49.16111" lon="6.85264">
        <ele>202.01</ele>
        <time>2014-03-12T15:12:00Z</time>
      </trkpt>
      <trkpt lat="49.16136" lon="6.85244">
        <ele>200.09</ele>
        <time>2014-03-12T15:12:19Z</time>
      </trkpt>
      <trkpt lat="49.16151" lon="6.85229">
        <ele>199.13</ele>
        <time>2014-03-12T15:12:34Z</time>
      </trkpt>
      <trkpt lat="49.16157" lon="6.85216">
        <ele>198.17</ele>
        <time>2014-03-12T15:12:43Z</time>
      </trkpt>
      <trkpt lat="49.16151" lon="6.85186">
        <ele>196.73</ele>
        <time>2014-03-12T15:12:59Z</time>
      </trkpt>
      <trkpt lat="49.16147" lon="6.85169">
        <ele>199.13</ele>
        <time>2014-03-12T15:13:26Z</time>
      </trkpt>
      <trkpt lat="49.16149" lon="6.85174">
        <ele>200.09</ele>
        <time>2014-03-12T15:13:45Z</time>
      </trkpt>
      <trkpt lat="49.16149" lon="6.85183">
        <ele>201.53</ele>
        <time>2014-03-12T15:14:11Z</time>
      </trkpt>
      <trkpt lat="49.16149" lon="6.85184">
        <ele>201.53</ele>
        <time>2014-03-12T15:14:37Z</time>
      </trkpt>
      <trkpt lat="49.16148" lon="6.85185">
        <ele>204.9</ele>
        <time>2014-03-12T15:15:12Z</time>
      </trkpt>
      <trkpt lat="49.16149" lon="6.85179">
        <ele>206.34</ele>
        <time>2014-03-12T15:15:45Z</time>
      </trkpt>
      <trkpt lat="49.16149" lon="6.85179">
        <ele>208.26</ele>
        <time>2014-03-12T15:16:17Z</time>
      </trkpt>
      <trkpt lat="49.16148" lon="6.85179">
        <ele>209.22</ele>
        <time>2014-03-12T15:16:47Z</time>
      </trkpt>
      <trkpt lat="49.16149" lon="6.85178">
        <ele>210.67</ele>
        <time>2014-03-12T15:17:19Z</time>
      </trkpt>
      <trkpt lat="49.16149" lon="6.85178">
        <ele>209.7</ele>
        <time>2014-03-12T15:17:50Z</time>
      </trkpt>
      <trkpt lat="49.16147" lon="6.85177">
        <ele>205.86</ele>
        <time>2014-03-12T15:18:22Z</time>
      </trkpt>
    </trkseg>
  </trk>
</gpx>